<?xml version="1.0" encoding="UTF-8" standalone="no" ?>
<gpx xmlns="http://www.topografix.com/GPX/1/1" xmlns:xsi="http://www.w3.org/2001/XMLSchema-instance" xsi:schemaLocation="http://www.topografix.com/GPX/1/1 http://www.topografix.com/GPX/1/1/gpx.xsd" version="1.1" creator="VisuGPX - https://www.visugpx.com">
  <metadata>
    <name>Pointes de la Carmélite 2024</name>
    <desc><![CDATA[grp_trc:]]></desc>
  </metadata>
  <trk>
    <name><![CDATA[May 26, 2024]]></name>
    <cmt><![CDATA[07:22:16]]></cmt>
    <desc><![CDATA[comment ...]]></desc>
    <trkseg>
      <trkpt lat="45.97033" lon="6.52328">
        <ele>1724</ele>
        <time>2024-05-26T05:22:16Z</time>
      </trkpt>
      <trkpt lat="45.97033" lon="6.52328">
        <ele>1724</ele>
        <time>2024-05-26T05:22:17Z</time>
      </trkpt>
      <trkpt lat="45.97025" lon="6.52323">
        <ele>1723</ele>
        <time>2024-05-26T05:25:17Z</time>
      </trkpt>
      <trkpt lat="45.97016" lon="6.52326">
        <ele>1723</ele>
        <time>2024-05-26T05:25:27Z</time>
      </trkpt>
      <trkpt lat="45.97" lon="6.52339">
        <ele>1721</ele>
        <time>2024-05-26T05:28:07Z</time>
      </trkpt>
      <trkpt lat="45.96997" lon="6.52352">
        <ele>1720</ele>
        <time>2024-05-26T05:28:16Z</time>
      </trkpt>
      <trkpt lat="45.96999" lon="6.52404">
        <ele>1721</ele>
        <time>2024-05-26T05:28:56Z</time>
      </trkpt>
      <trkpt lat="45.97001" lon="6.52418">
        <ele>1723</ele>
        <time>2024-05-26T05:29:06Z</time>
      </trkpt>
      <trkpt lat="45.96998" lon="6.52431">
        <ele>1723</ele>
        <time>2024-05-26T05:29:35Z</time>
      </trkpt>
      <trkpt lat="45.96993" lon="6.52441">
        <ele>1723</ele>
        <time>2024-05-26T05:29:48Z</time>
      </trkpt>
      <trkpt lat="45.96993" lon="6.52441">
        <ele>1724</ele>
        <time>2024-05-26T05:33:42Z</time>
      </trkpt>
      <trkpt lat="45.96984" lon="6.52448">
        <ele>1723</ele>
        <time>2024-05-26T05:35:09Z</time>
      </trkpt>
      <trkpt lat="45.96956" lon="6.52485">
        <ele>1719</ele>
        <time>2024-05-26T05:35:49Z</time>
      </trkpt>
      <trkpt lat="45.96933" lon="6.52508">
        <ele>1722</ele>
        <time>2024-05-26T05:36:21Z</time>
      </trkpt>
      <trkpt lat="45.96925" lon="6.52518">
        <ele>1723</ele>
        <time>2024-05-26T05:36:31Z</time>
      </trkpt>
      <trkpt lat="45.96909" lon="6.52534">
        <ele>1724</ele>
        <time>2024-05-26T05:36:51Z</time>
      </trkpt>
      <trkpt lat="45.969" lon="6.52538">
        <ele>1727</ele>
        <time>2024-05-26T05:37:03Z</time>
      </trkpt>
      <trkpt lat="45.96891" lon="6.52539">
        <ele>1728</ele>
        <time>2024-05-26T05:37:14Z</time>
      </trkpt>
      <trkpt lat="45.96882" lon="6.52543">
        <ele>1734</ele>
        <time>2024-05-26T05:37:25Z</time>
      </trkpt>
      <trkpt lat="45.96874" lon="6.52549">
        <ele>1734</ele>
        <time>2024-05-26T05:37:34Z</time>
      </trkpt>
      <trkpt lat="45.96863" lon="6.52569">
        <ele>1735</ele>
        <time>2024-05-26T05:37:56Z</time>
      </trkpt>
      <trkpt lat="45.96858" lon="6.5258">
        <ele>1737</ele>
        <time>2024-05-26T05:38:09Z</time>
      </trkpt>
      <trkpt lat="45.96852" lon="6.5259">
        <ele>1740</ele>
        <time>2024-05-26T05:38:22Z</time>
      </trkpt>
      <trkpt lat="45.96837" lon="6.52606">
        <ele>1744</ele>
        <time>2024-05-26T05:38:48Z</time>
      </trkpt>
      <trkpt lat="45.96823" lon="6.52624">
        <ele>1748</ele>
        <time>2024-05-26T05:39:16Z</time>
      </trkpt>
      <trkpt lat="45.96805" lon="6.52634">
        <ele>1751</ele>
        <time>2024-05-26T05:39:38Z</time>
      </trkpt>
      <trkpt lat="45.96787" lon="6.52623">
        <ele>1753</ele>
        <time>2024-05-26T05:40:02Z</time>
      </trkpt>
      <trkpt lat="45.96771" lon="6.52612">
        <ele>1761</ele>
        <time>2024-05-26T05:40:30Z</time>
      </trkpt>
      <trkpt lat="45.96762" lon="6.52609">
        <ele>1765</ele>
        <time>2024-05-26T05:40:44Z</time>
      </trkpt>
      <trkpt lat="45.96753" lon="6.52606">
        <ele>1766</ele>
        <time>2024-05-26T05:40:57Z</time>
      </trkpt>
      <trkpt lat="45.96734" lon="6.526">
        <ele>1769</ele>
        <time>2024-05-26T05:41:20Z</time>
      </trkpt>
      <trkpt lat="45.96717" lon="6.52589">
        <ele>1775</ele>
        <time>2024-05-26T05:41:42Z</time>
      </trkpt>
      <trkpt lat="45.96699" lon="6.52589">
        <ele>1775</ele>
        <time>2024-05-26T05:42:02Z</time>
      </trkpt>
      <trkpt lat="45.96702" lon="6.52601">
        <ele>1778</ele>
        <time>2024-05-26T05:42:51Z</time>
      </trkpt>
      <trkpt lat="45.96708" lon="6.52611">
        <ele>1783</ele>
        <time>2024-05-26T05:43:03Z</time>
      </trkpt>
      <trkpt lat="45.96713" lon="6.52623">
        <ele>1786</ele>
        <time>2024-05-26T05:43:19Z</time>
      </trkpt>
      <trkpt lat="45.96719" lon="6.52633">
        <ele>1787</ele>
        <time>2024-05-26T05:43:31Z</time>
      </trkpt>
      <trkpt lat="45.96724" lon="6.52644">
        <ele>1787</ele>
        <time>2024-05-26T05:43:44Z</time>
      </trkpt>
      <trkpt lat="45.96719" lon="6.52656">
        <ele>1786</ele>
        <time>2024-05-26T05:43:58Z</time>
      </trkpt>
      <trkpt lat="45.9671" lon="6.52661">
        <ele>1787</ele>
        <time>2024-05-26T05:44:21Z</time>
      </trkpt>
      <trkpt lat="45.96702" lon="6.52659">
        <ele>1788</ele>
        <time>2024-05-26T05:44:37Z</time>
      </trkpt>
      <trkpt lat="45.96674" lon="6.52659">
        <ele>1791</ele>
        <time>2024-05-26T05:45:16Z</time>
      </trkpt>
      <trkpt lat="45.96665" lon="6.52655">
        <ele>1793</ele>
        <time>2024-05-26T05:45:31Z</time>
      </trkpt>
      <trkpt lat="45.96647" lon="6.52655">
        <ele>1798</ele>
        <time>2024-05-26T05:46:09Z</time>
      </trkpt>
      <trkpt lat="45.96639" lon="6.52649">
        <ele>1804</ele>
        <time>2024-05-26T05:46:29Z</time>
      </trkpt>
      <trkpt lat="45.96631" lon="6.52645">
        <ele>1805</ele>
        <time>2024-05-26T05:46:45Z</time>
      </trkpt>
      <trkpt lat="45.96622" lon="6.52641">
        <ele>1811</ele>
        <time>2024-05-26T05:46:58Z</time>
      </trkpt>
      <trkpt lat="45.96603" lon="6.52634">
        <ele>1814</ele>
        <time>2024-05-26T05:47:23Z</time>
      </trkpt>
      <trkpt lat="45.96576" lon="6.5263">
        <ele>1814</ele>
        <time>2024-05-26T05:47:55Z</time>
      </trkpt>
      <trkpt lat="45.96567" lon="6.52628">
        <ele>1814</ele>
        <time>2024-05-26T05:48:07Z</time>
      </trkpt>
      <trkpt lat="45.96549" lon="6.52623">
        <ele>1819</ele>
        <time>2024-05-26T05:48:36Z</time>
      </trkpt>
      <trkpt lat="45.9654" lon="6.52623">
        <ele>1822</ele>
        <time>2024-05-26T05:48:55Z</time>
      </trkpt>
      <trkpt lat="45.96531" lon="6.52618">
        <ele>1824</ele>
        <time>2024-05-26T05:49:10Z</time>
      </trkpt>
      <trkpt lat="45.96522" lon="6.5262">
        <ele>1828</ele>
        <time>2024-05-26T05:49:29Z</time>
      </trkpt>
      <trkpt lat="45.96513" lon="6.52618">
        <ele>1830</ele>
        <time>2024-05-26T05:49:45Z</time>
      </trkpt>
      <trkpt lat="45.96504" lon="6.52617">
        <ele>1833</ele>
        <time>2024-05-26T05:50:00Z</time>
      </trkpt>
      <trkpt lat="45.96495" lon="6.52618">
        <ele>1833</ele>
        <time>2024-05-26T05:50:15Z</time>
      </trkpt>
      <trkpt lat="45.96477" lon="6.52614">
        <ele>1837</ele>
        <time>2024-05-26T05:50:43Z</time>
      </trkpt>
      <trkpt lat="45.96468" lon="6.52615">
        <ele>1839</ele>
        <time>2024-05-26T05:51:11Z</time>
      </trkpt>
      <trkpt lat="45.96458" lon="6.52616">
        <ele>1840</ele>
        <time>2024-05-26T05:51:44Z</time>
      </trkpt>
      <trkpt lat="45.96449" lon="6.52615">
        <ele>1844</ele>
        <time>2024-05-26T05:51:55Z</time>
      </trkpt>
      <trkpt lat="45.96439" lon="6.52616">
        <ele>1847</ele>
        <time>2024-05-26T05:52:09Z</time>
      </trkpt>
      <trkpt lat="45.96422" lon="6.52626">
        <ele>1852</ele>
        <time>2024-05-26T05:52:59Z</time>
      </trkpt>
      <trkpt lat="45.96424" lon="6.52639">
        <ele>1853</ele>
        <time>2024-05-26T05:53:14Z</time>
      </trkpt>
      <trkpt lat="45.96429" lon="6.5265">
        <ele>1858</ele>
        <time>2024-05-26T05:53:29Z</time>
      </trkpt>
      <trkpt lat="45.96434" lon="6.52661">
        <ele>1861</ele>
        <time>2024-05-26T05:53:47Z</time>
      </trkpt>
      <trkpt lat="45.9644" lon="6.52671">
        <ele>1863</ele>
        <time>2024-05-26T05:54:01Z</time>
      </trkpt>
      <trkpt lat="45.96456" lon="6.52703">
        <ele>1865</ele>
        <time>2024-05-26T05:54:37Z</time>
      </trkpt>
      <trkpt lat="45.96473" lon="6.52751">
        <ele>1866</ele>
        <time>2024-05-26T05:55:15Z</time>
      </trkpt>
      <trkpt lat="45.96476" lon="6.52763">
        <ele>1866</ele>
        <time>2024-05-26T05:55:27Z</time>
      </trkpt>
      <trkpt lat="45.96474" lon="6.52776">
        <ele>1865</ele>
        <time>2024-05-26T05:55:36Z</time>
      </trkpt>
      <trkpt lat="45.96472" lon="6.52789">
        <ele>1864</ele>
        <time>2024-05-26T05:55:46Z</time>
      </trkpt>
      <trkpt lat="45.96468" lon="6.52816">
        <ele>1863</ele>
        <time>2024-05-26T05:56:06Z</time>
      </trkpt>
      <trkpt lat="45.96461" lon="6.52825">
        <ele>1863</ele>
        <time>2024-05-26T05:56:29Z</time>
      </trkpt>
      <trkpt lat="45.96452" lon="6.5283">
        <ele>1864</ele>
        <time>2024-05-26T05:56:39Z</time>
      </trkpt>
      <trkpt lat="45.96444" lon="6.52836">
        <ele>1865</ele>
        <time>2024-05-26T05:56:49Z</time>
      </trkpt>
      <trkpt lat="45.96436" lon="6.52843">
        <ele>1869</ele>
        <time>2024-05-26T05:57:00Z</time>
      </trkpt>
      <trkpt lat="45.96421" lon="6.52875">
        <ele>1872</ele>
        <time>2024-05-26T05:57:36Z</time>
      </trkpt>
      <trkpt lat="45.96407" lon="6.52893">
        <ele>1874</ele>
        <time>2024-05-26T05:58:04Z</time>
      </trkpt>
      <trkpt lat="45.96404" lon="6.52906">
        <ele>1876</ele>
        <time>2024-05-26T05:58:23Z</time>
      </trkpt>
      <trkpt lat="45.96402" lon="6.52918">
        <ele>1877</ele>
        <time>2024-05-26T05:58:40Z</time>
      </trkpt>
      <trkpt lat="45.96394" lon="6.52927">
        <ele>1880</ele>
        <time>2024-05-26T05:59:03Z</time>
      </trkpt>
      <trkpt lat="45.96385" lon="6.5293">
        <ele>1880</ele>
        <time>2024-05-26T05:59:13Z</time>
      </trkpt>
      <trkpt lat="45.9638" lon="6.5294">
        <ele>1880</ele>
        <time>2024-05-26T05:59:25Z</time>
      </trkpt>
      <trkpt lat="45.9638" lon="6.52953">
        <ele>1882</ele>
        <time>2024-05-26T06:00:04Z</time>
      </trkpt>
      <trkpt lat="45.9638" lon="6.52967">
        <ele>1883</ele>
        <time>2024-05-26T06:00:19Z</time>
      </trkpt>
      <trkpt lat="45.96378" lon="6.5298">
        <ele>1883</ele>
        <time>2024-05-26T06:01:24Z</time>
      </trkpt>
      <trkpt lat="45.96377" lon="6.52993">
        <ele>1883</ele>
        <time>2024-05-26T06:01:47Z</time>
      </trkpt>
      <trkpt lat="45.96376" lon="6.53006">
        <ele>1884</ele>
        <time>2024-05-26T06:02:06Z</time>
      </trkpt>
      <trkpt lat="45.96376" lon="6.53033">
        <ele>1883</ele>
        <time>2024-05-26T06:02:38Z</time>
      </trkpt>
      <trkpt lat="45.96376" lon="6.53047">
        <ele>1884</ele>
        <time>2024-05-26T06:02:53Z</time>
      </trkpt>
      <trkpt lat="45.96374" lon="6.53073">
        <ele>1884</ele>
        <time>2024-05-26T06:03:23Z</time>
      </trkpt>
      <trkpt lat="45.96371" lon="6.53085">
        <ele>1886</ele>
        <time>2024-05-26T06:03:41Z</time>
      </trkpt>
      <trkpt lat="45.96366" lon="6.53096">
        <ele>1887</ele>
        <time>2024-05-26T06:04:14Z</time>
      </trkpt>
      <trkpt lat="45.96362" lon="6.53108">
        <ele>1889</ele>
        <time>2024-05-26T06:04:36Z</time>
      </trkpt>
      <trkpt lat="45.96362" lon="6.53121">
        <ele>1892</ele>
        <time>2024-05-26T06:04:51Z</time>
      </trkpt>
      <trkpt lat="45.96359" lon="6.53134">
        <ele>1895</ele>
        <time>2024-05-26T06:05:10Z</time>
      </trkpt>
      <trkpt lat="45.9636" lon="6.53147">
        <ele>1895</ele>
        <time>2024-05-26T06:06:33Z</time>
      </trkpt>
      <trkpt lat="45.96357" lon="6.5316">
        <ele>1899</ele>
        <time>2024-05-26T06:08:02Z</time>
      </trkpt>
      <trkpt lat="45.96353" lon="6.53172">
        <ele>1900</ele>
        <time>2024-05-26T06:08:13Z</time>
      </trkpt>
      <trkpt lat="45.96351" lon="6.53185">
        <ele>1902</ele>
        <time>2024-05-26T06:08:35Z</time>
      </trkpt>
      <trkpt lat="45.96348" lon="6.53197">
        <ele>1903</ele>
        <time>2024-05-26T06:08:54Z</time>
      </trkpt>
      <trkpt lat="45.96347" lon="6.5321">
        <ele>1907</ele>
        <time>2024-05-26T06:09:16Z</time>
      </trkpt>
      <trkpt lat="45.96346" lon="6.53223">
        <ele>1909</ele>
        <time>2024-05-26T06:09:37Z</time>
      </trkpt>
      <trkpt lat="45.96345" lon="6.53236">
        <ele>1912</ele>
        <time>2024-05-26T06:10:01Z</time>
      </trkpt>
      <trkpt lat="45.96336" lon="6.53231">
        <ele>1912</ele>
        <time>2024-05-26T06:10:50Z</time>
      </trkpt>
      <trkpt lat="45.96327" lon="6.53233">
        <ele>1917</ele>
        <time>2024-05-26T06:11:16Z</time>
      </trkpt>
      <trkpt lat="45.96322" lon="6.53243">
        <ele>1918</ele>
        <time>2024-05-26T06:11:31Z</time>
      </trkpt>
      <trkpt lat="45.96321" lon="6.53257">
        <ele>1923</ele>
        <time>2024-05-26T06:12:14Z</time>
      </trkpt>
      <trkpt lat="45.96323" lon="6.53271">
        <ele>1924</ele>
        <time>2024-05-26T06:12:45Z</time>
      </trkpt>
      <trkpt lat="45.96326" lon="6.53283">
        <ele>1926</ele>
        <time>2024-05-26T06:12:57Z</time>
      </trkpt>
      <trkpt lat="45.96331" lon="6.53294">
        <ele>1927</ele>
        <time>2024-05-26T06:14:01Z</time>
      </trkpt>
      <trkpt lat="45.96342" lon="6.53316">
        <ele>1932</ele>
        <time>2024-05-26T06:14:31Z</time>
      </trkpt>
      <trkpt lat="45.96345" lon="6.53329">
        <ele>1933</ele>
        <time>2024-05-26T06:14:42Z</time>
      </trkpt>
      <trkpt lat="45.96352" lon="6.53338">
        <ele>1934</ele>
        <time>2024-05-26T06:14:54Z</time>
      </trkpt>
      <trkpt lat="45.96366" lon="6.53373">
        <ele>1937</ele>
        <time>2024-05-26T06:15:30Z</time>
      </trkpt>
      <trkpt lat="45.96368" lon="6.53385">
        <ele>1937</ele>
        <time>2024-05-26T06:15:47Z</time>
      </trkpt>
      <trkpt lat="45.96371" lon="6.53399">
        <ele>1934</ele>
        <time>2024-05-26T06:16:00Z</time>
      </trkpt>
      <trkpt lat="45.96374" lon="6.53412">
        <ele>1934</ele>
        <time>2024-05-26T06:16:11Z</time>
      </trkpt>
      <trkpt lat="45.96378" lon="6.53424">
        <ele>1936</ele>
        <time>2024-05-26T06:16:26Z</time>
      </trkpt>
      <trkpt lat="45.96386" lon="6.5343">
        <ele>1936</ele>
        <time>2024-05-26T06:16:42Z</time>
      </trkpt>
      <trkpt lat="45.96393" lon="6.53439">
        <ele>1935</ele>
        <time>2024-05-26T06:17:52Z</time>
      </trkpt>
      <trkpt lat="45.96398" lon="6.5345">
        <ele>1935</ele>
        <time>2024-05-26T06:18:06Z</time>
      </trkpt>
      <trkpt lat="45.96411" lon="6.53468">
        <ele>1937</ele>
        <time>2024-05-26T06:18:38Z</time>
      </trkpt>
      <trkpt lat="45.96412" lon="6.53481">
        <ele>1941</ele>
        <time>2024-05-26T06:19:00Z</time>
      </trkpt>
      <trkpt lat="45.9642" lon="6.53489">
        <ele>1943</ele>
        <time>2024-05-26T06:19:23Z</time>
      </trkpt>
      <trkpt lat="45.9642" lon="6.53502">
        <ele>1949</ele>
        <time>2024-05-26T06:19:51Z</time>
      </trkpt>
      <trkpt lat="45.96425" lon="6.53513">
        <ele>1949</ele>
        <time>2024-05-26T06:20:08Z</time>
      </trkpt>
      <trkpt lat="45.96434" lon="6.53513">
        <ele>1949</ele>
        <time>2024-05-26T06:20:24Z</time>
      </trkpt>
      <trkpt lat="45.96441" lon="6.53521">
        <ele>1949</ele>
        <time>2024-05-26T06:20:51Z</time>
      </trkpt>
      <trkpt lat="45.96449" lon="6.53529">
        <ele>1952</ele>
        <time>2024-05-26T06:21:02Z</time>
      </trkpt>
      <trkpt lat="45.96451" lon="6.53542">
        <ele>1953</ele>
        <time>2024-05-26T06:21:22Z</time>
      </trkpt>
      <trkpt lat="45.96457" lon="6.53552">
        <ele>1954</ele>
        <time>2024-05-26T06:21:46Z</time>
      </trkpt>
      <trkpt lat="45.96458" lon="6.53565">
        <ele>1957</ele>
        <time>2024-05-26T06:22:45Z</time>
      </trkpt>
      <trkpt lat="45.96464" lon="6.53576">
        <ele>1956</ele>
        <time>2024-05-26T06:23:08Z</time>
      </trkpt>
      <trkpt lat="45.96466" lon="6.53589">
        <ele>1955</ele>
        <time>2024-05-26T06:23:24Z</time>
      </trkpt>
      <trkpt lat="45.96472" lon="6.53599">
        <ele>1955</ele>
        <time>2024-05-26T06:23:43Z</time>
      </trkpt>
      <trkpt lat="45.96471" lon="6.53613">
        <ele>1955</ele>
        <time>2024-05-26T06:23:58Z</time>
      </trkpt>
      <trkpt lat="45.96465" lon="6.53623">
        <ele>1955</ele>
        <time>2024-05-26T06:24:08Z</time>
      </trkpt>
      <trkpt lat="45.96458" lon="6.53633">
        <ele>1954</ele>
        <time>2024-05-26T06:24:18Z</time>
      </trkpt>
      <trkpt lat="45.96452" lon="6.53642">
        <ele>1954</ele>
        <time>2024-05-26T06:25:08Z</time>
      </trkpt>
      <trkpt lat="45.96427" lon="6.53661">
        <ele>1950</ele>
        <time>2024-05-26T06:25:48Z</time>
      </trkpt>
      <trkpt lat="45.96422" lon="6.53673">
        <ele>1950</ele>
        <time>2024-05-26T06:25:57Z</time>
      </trkpt>
      <trkpt lat="45.96418" lon="6.53685">
        <ele>1948</ele>
        <time>2024-05-26T06:26:08Z</time>
      </trkpt>
      <trkpt lat="45.96414" lon="6.53698">
        <ele>1946</ele>
        <time>2024-05-26T06:26:15Z</time>
      </trkpt>
      <trkpt lat="45.96406" lon="6.53705">
        <ele>1947</ele>
        <time>2024-05-26T06:27:18Z</time>
      </trkpt>
      <trkpt lat="45.96403" lon="6.53716">
        <ele>1949</ele>
        <time>2024-05-26T06:27:28Z</time>
      </trkpt>
      <trkpt lat="45.96403" lon="6.5373">
        <ele>1950</ele>
        <time>2024-05-26T06:27:46Z</time>
      </trkpt>
      <trkpt lat="45.96397" lon="6.5374">
        <ele>1947</ele>
        <time>2024-05-26T06:28:17Z</time>
      </trkpt>
      <trkpt lat="45.96385" lon="6.5376">
        <ele>1937</ele>
        <time>2024-05-26T06:28:58Z</time>
      </trkpt>
      <trkpt lat="45.96373" lon="6.53796">
        <ele>1935</ele>
        <time>2024-05-26T06:29:49Z</time>
      </trkpt>
      <trkpt lat="45.96364" lon="6.53793">
        <ele>1932</ele>
        <time>2024-05-26T06:30:19Z</time>
      </trkpt>
      <trkpt lat="45.9635" lon="6.5381">
        <ele>1922</ele>
        <time>2024-05-26T06:30:47Z</time>
      </trkpt>
      <trkpt lat="45.96333" lon="6.53822">
        <ele>1919</ele>
        <time>2024-05-26T06:31:12Z</time>
      </trkpt>
      <trkpt lat="45.96316" lon="6.53834">
        <ele>1913</ele>
        <time>2024-05-26T06:31:44Z</time>
      </trkpt>
      <trkpt lat="45.96307" lon="6.53837">
        <ele>1910</ele>
        <time>2024-05-26T06:31:57Z</time>
      </trkpt>
      <trkpt lat="45.96299" lon="6.5384">
        <ele>1909</ele>
        <time>2024-05-26T06:32:13Z</time>
      </trkpt>
      <trkpt lat="45.9629" lon="6.53838">
        <ele>1910</ele>
        <time>2024-05-26T06:32:29Z</time>
      </trkpt>
      <trkpt lat="45.96273" lon="6.53851">
        <ele>1913</ele>
        <time>2024-05-26T06:33:03Z</time>
      </trkpt>
      <trkpt lat="45.96265" lon="6.53857">
        <ele>1914</ele>
        <time>2024-05-26T06:33:21Z</time>
      </trkpt>
      <trkpt lat="45.96257" lon="6.53863">
        <ele>1919</ele>
        <time>2024-05-26T06:33:42Z</time>
      </trkpt>
      <trkpt lat="45.9625" lon="6.53872">
        <ele>1922</ele>
        <time>2024-05-26T06:34:09Z</time>
      </trkpt>
      <trkpt lat="45.96245" lon="6.53882">
        <ele>1924</ele>
        <time>2024-05-26T06:35:41Z</time>
      </trkpt>
      <trkpt lat="45.96239" lon="6.53892">
        <ele>1925</ele>
        <time>2024-05-26T06:35:59Z</time>
      </trkpt>
      <trkpt lat="45.96227" lon="6.53911">
        <ele>1927</ele>
        <time>2024-05-26T06:36:27Z</time>
      </trkpt>
      <trkpt lat="45.96218" lon="6.53911">
        <ele>1927</ele>
        <time>2024-05-26T06:36:43Z</time>
      </trkpt>
      <trkpt lat="45.96211" lon="6.53919">
        <ele>1927</ele>
        <time>2024-05-26T06:37:35Z</time>
      </trkpt>
      <trkpt lat="45.96203" lon="6.53927">
        <ele>1927</ele>
        <time>2024-05-26T06:37:52Z</time>
      </trkpt>
      <trkpt lat="45.96185" lon="6.53923">
        <ele>1929</ele>
        <time>2024-05-26T06:38:12Z</time>
      </trkpt>
      <trkpt lat="45.96176" lon="6.53921">
        <ele>1928</ele>
        <time>2024-05-26T06:38:22Z</time>
      </trkpt>
      <trkpt lat="45.96168" lon="6.53915">
        <ele>1924</ele>
        <time>2024-05-26T06:38:36Z</time>
      </trkpt>
      <trkpt lat="45.9616" lon="6.53907">
        <ele>1925</ele>
        <time>2024-05-26T06:38:54Z</time>
      </trkpt>
      <trkpt lat="45.96152" lon="6.53901">
        <ele>1927</ele>
        <time>2024-05-26T06:39:06Z</time>
      </trkpt>
      <trkpt lat="45.96143" lon="6.539">
        <ele>1929</ele>
        <time>2024-05-26T06:39:20Z</time>
      </trkpt>
      <trkpt lat="45.96134" lon="6.53924">
        <ele>1933</ele>
        <time>2024-05-26T06:39:49Z</time>
      </trkpt>
      <trkpt lat="45.96133" lon="6.53937">
        <ele>1933</ele>
        <time>2024-05-26T06:40:05Z</time>
      </trkpt>
      <trkpt lat="45.96139" lon="6.53948">
        <ele>1934</ele>
        <time>2024-05-26T06:40:18Z</time>
      </trkpt>
      <trkpt lat="45.96145" lon="6.53957">
        <ele>1935</ele>
        <time>2024-05-26T06:40:33Z</time>
      </trkpt>
      <trkpt lat="45.96154" lon="6.5396">
        <ele>1934</ele>
        <time>2024-05-26T06:40:46Z</time>
      </trkpt>
      <trkpt lat="45.96161" lon="6.53969">
        <ele>1935</ele>
        <time>2024-05-26T06:41:00Z</time>
      </trkpt>
      <trkpt lat="45.96169" lon="6.53976">
        <ele>1938</ele>
        <time>2024-05-26T06:41:13Z</time>
      </trkpt>
      <trkpt lat="45.96177" lon="6.53985">
        <ele>1940</ele>
        <time>2024-05-26T06:41:23Z</time>
      </trkpt>
      <trkpt lat="45.96184" lon="6.53993">
        <ele>1941</ele>
        <time>2024-05-26T06:41:38Z</time>
      </trkpt>
      <trkpt lat="45.96188" lon="6.54005">
        <ele>1939</ele>
        <time>2024-05-26T06:41:53Z</time>
      </trkpt>
      <trkpt lat="45.96195" lon="6.54015">
        <ele>1941</ele>
        <time>2024-05-26T06:42:13Z</time>
      </trkpt>
      <trkpt lat="45.96195" lon="6.54029">
        <ele>1941</ele>
        <time>2024-05-26T06:42:37Z</time>
      </trkpt>
      <trkpt lat="45.96201" lon="6.5404">
        <ele>1942</ele>
        <time>2024-05-26T06:42:57Z</time>
      </trkpt>
      <trkpt lat="45.96208" lon="6.5405">
        <ele>1952</ele>
        <time>2024-05-26T06:45:44Z</time>
      </trkpt>
      <trkpt lat="45.96219" lon="6.54072">
        <ele>1956</ele>
        <time>2024-05-26T06:46:28Z</time>
      </trkpt>
      <trkpt lat="45.96228" lon="6.54073">
        <ele>1956</ele>
        <time>2024-05-26T06:46:50Z</time>
      </trkpt>
      <trkpt lat="45.96237" lon="6.54069">
        <ele>1964</ele>
        <time>2024-05-26T06:47:07Z</time>
      </trkpt>
      <trkpt lat="45.96239" lon="6.54082">
        <ele>1966</ele>
        <time>2024-05-26T06:47:44Z</time>
      </trkpt>
      <trkpt lat="45.96242" lon="6.54094">
        <ele>1971</ele>
        <time>2024-05-26T06:48:31Z</time>
      </trkpt>
      <trkpt lat="45.96239" lon="6.54106">
        <ele>1981</ele>
        <time>2024-05-26T06:48:58Z</time>
      </trkpt>
      <trkpt lat="45.96245" lon="6.54115">
        <ele>1981</ele>
        <time>2024-05-26T06:50:21Z</time>
      </trkpt>
      <trkpt lat="45.96254" lon="6.54118">
        <ele>1985</ele>
        <time>2024-05-26T06:51:28Z</time>
      </trkpt>
      <trkpt lat="45.9626" lon="6.54122">
        <ele>1990</ele>
        <time>2024-05-26T06:52:09Z</time>
      </trkpt>
      <trkpt lat="45.96256" lon="6.54134">
        <ele>1992</ele>
        <time>2024-05-26T06:52:29Z</time>
      </trkpt>
      <trkpt lat="45.96249" lon="6.54142">
        <ele>1994</ele>
        <time>2024-05-26T06:52:59Z</time>
      </trkpt>
      <trkpt lat="45.9624" lon="6.54141">
        <ele>2000</ele>
        <time>2024-05-26T06:53:25Z</time>
      </trkpt>
      <trkpt lat="45.96231" lon="6.54144">
        <ele>2006</ele>
        <time>2024-05-26T06:56:01Z</time>
      </trkpt>
      <trkpt lat="45.96235" lon="6.54156">
        <ele>2007</ele>
        <time>2024-05-26T06:58:57Z</time>
      </trkpt>
      <trkpt lat="45.96227" lon="6.54163">
        <ele>2015</ele>
        <time>2024-05-26T06:59:19Z</time>
      </trkpt>
      <trkpt lat="45.96218" lon="6.54165">
        <ele>2017</ele>
        <time>2024-05-26T06:59:37Z</time>
      </trkpt>
      <trkpt lat="45.96209" lon="6.54163">
        <ele>2022</ele>
        <time>2024-05-26T06:59:55Z</time>
      </trkpt>
      <trkpt lat="45.96203" lon="6.54175">
        <ele>2023</ele>
        <time>2024-05-26T07:00:26Z</time>
      </trkpt>
      <trkpt lat="45.96208" lon="6.54186">
        <ele>2022</ele>
        <time>2024-05-26T07:00:52Z</time>
      </trkpt>
      <trkpt lat="45.96206" lon="6.54197">
        <ele>2025</ele>
        <time>2024-05-26T07:01:37Z</time>
      </trkpt>
      <trkpt lat="45.96209" lon="6.54209">
        <ele>2027</ele>
        <time>2024-05-26T07:02:07Z</time>
      </trkpt>
      <trkpt lat="45.96201" lon="6.5421">
        <ele>2036</ele>
        <time>2024-05-26T07:02:57Z</time>
      </trkpt>
      <trkpt lat="45.96192" lon="6.54206">
        <ele>2043</ele>
        <time>2024-05-26T07:03:19Z</time>
      </trkpt>
      <trkpt lat="45.96183" lon="6.54203">
        <ele>2044</ele>
        <time>2024-05-26T07:03:37Z</time>
      </trkpt>
      <trkpt lat="45.96165" lon="6.54204">
        <ele>2050</ele>
        <time>2024-05-26T07:04:17Z</time>
      </trkpt>
      <trkpt lat="45.96156" lon="6.54204">
        <ele>2051</ele>
        <time>2024-05-26T07:04:37Z</time>
      </trkpt>
      <trkpt lat="45.96147" lon="6.54204">
        <ele>2053</ele>
        <time>2024-05-26T07:05:01Z</time>
      </trkpt>
      <trkpt lat="45.96138" lon="6.54204">
        <ele>2056</ele>
        <time>2024-05-26T07:05:19Z</time>
      </trkpt>
      <trkpt lat="45.96129" lon="6.54207">
        <ele>2058</ele>
        <time>2024-05-26T07:05:38Z</time>
      </trkpt>
      <trkpt lat="45.96123" lon="6.54216">
        <ele>2059</ele>
        <time>2024-05-26T07:05:57Z</time>
      </trkpt>
      <trkpt lat="45.96126" lon="6.54228">
        <ele>2060</ele>
        <time>2024-05-26T07:06:15Z</time>
      </trkpt>
      <trkpt lat="45.96131" lon="6.54239">
        <ele>2067</ele>
        <time>2024-05-26T07:06:40Z</time>
      </trkpt>
      <trkpt lat="45.96124" lon="6.54247">
        <ele>2070</ele>
        <time>2024-05-26T07:07:21Z</time>
      </trkpt>
      <trkpt lat="45.96115" lon="6.5425">
        <ele>2071</ele>
        <time>2024-05-26T07:07:35Z</time>
      </trkpt>
      <trkpt lat="45.96106" lon="6.54251">
        <ele>2076</ele>
        <time>2024-05-26T07:07:51Z</time>
      </trkpt>
      <trkpt lat="45.96097" lon="6.54253">
        <ele>2077</ele>
        <time>2024-05-26T07:08:10Z</time>
      </trkpt>
      <trkpt lat="45.96088" lon="6.54253">
        <ele>2080</ele>
        <time>2024-05-26T07:08:28Z</time>
      </trkpt>
      <trkpt lat="45.96079" lon="6.54256">
        <ele>2081</ele>
        <time>2024-05-26T07:08:45Z</time>
      </trkpt>
      <trkpt lat="45.9607" lon="6.54256">
        <ele>2083</ele>
        <time>2024-05-26T07:09:02Z</time>
      </trkpt>
      <trkpt lat="45.96061" lon="6.54261">
        <ele>2084</ele>
        <time>2024-05-26T07:09:19Z</time>
      </trkpt>
      <trkpt lat="45.96045" lon="6.54274">
        <ele>2088</ele>
        <time>2024-05-26T07:10:02Z</time>
      </trkpt>
      <trkpt lat="45.96047" lon="6.54288">
        <ele>2090</ele>
        <time>2024-05-26T07:10:51Z</time>
      </trkpt>
      <trkpt lat="45.96053" lon="6.54297">
        <ele>2091</ele>
        <time>2024-05-26T07:11:15Z</time>
      </trkpt>
      <trkpt lat="45.9606" lon="6.54307">
        <ele>2096</ele>
        <time>2024-05-26T07:11:37Z</time>
      </trkpt>
      <trkpt lat="45.96051" lon="6.54312">
        <ele>2099</ele>
        <time>2024-05-26T07:12:29Z</time>
      </trkpt>
      <trkpt lat="45.96052" lon="6.54326">
        <ele>2107</ele>
        <time>2024-05-26T07:13:08Z</time>
      </trkpt>
      <trkpt lat="45.96051" lon="6.54337">
        <ele>2114</ele>
        <time>2024-05-26T07:14:03Z</time>
      </trkpt>
      <trkpt lat="45.96042" lon="6.54339">
        <ele>2116</ele>
        <time>2024-05-26T07:14:54Z</time>
      </trkpt>
      <trkpt lat="45.96035" lon="6.54346">
        <ele>2121</ele>
        <time>2024-05-26T07:15:16Z</time>
      </trkpt>
      <trkpt lat="45.9604" lon="6.54357">
        <ele>2121</ele>
        <time>2024-05-26T07:15:40Z</time>
      </trkpt>
      <trkpt lat="45.96045" lon="6.54368">
        <ele>2129</ele>
        <time>2024-05-26T07:16:28Z</time>
      </trkpt>
      <trkpt lat="45.96043" lon="6.5438">
        <ele>2134</ele>
        <time>2024-05-26T07:17:12Z</time>
      </trkpt>
      <trkpt lat="45.96035" lon="6.54382">
        <ele>2134</ele>
        <time>2024-05-26T07:17:31Z</time>
      </trkpt>
      <trkpt lat="45.96026" lon="6.54376">
        <ele>2134</ele>
        <time>2024-05-26T07:18:07Z</time>
      </trkpt>
      <trkpt lat="45.96017" lon="6.54377">
        <ele>2134</ele>
        <time>2024-05-26T07:19:11Z</time>
      </trkpt>
      <trkpt lat="45.96002" lon="6.54389">
        <ele>2137</ele>
        <time>2024-05-26T07:19:44Z</time>
      </trkpt>
      <trkpt lat="45.95995" lon="6.54398">
        <ele>2142</ele>
        <time>2024-05-26T07:20:04Z</time>
      </trkpt>
      <trkpt lat="45.96002" lon="6.54408">
        <ele>2144</ele>
        <time>2024-05-26T07:20:21Z</time>
      </trkpt>
      <trkpt lat="45.96001" lon="6.54421">
        <ele>2145</ele>
        <time>2024-05-26T07:20:47Z</time>
      </trkpt>
      <trkpt lat="45.95997" lon="6.54433">
        <ele>2146</ele>
        <time>2024-05-26T07:21:05Z</time>
      </trkpt>
      <trkpt lat="45.95991" lon="6.54443">
        <ele>2152</ele>
        <time>2024-05-26T07:21:27Z</time>
      </trkpt>
      <trkpt lat="45.95986" lon="6.54454">
        <ele>2154</ele>
        <time>2024-05-26T07:21:47Z</time>
      </trkpt>
      <trkpt lat="45.95993" lon="6.54462">
        <ele>2155</ele>
        <time>2024-05-26T07:22:05Z</time>
      </trkpt>
      <trkpt lat="45.95998" lon="6.54473">
        <ele>2159</ele>
        <time>2024-05-26T07:22:23Z</time>
      </trkpt>
      <trkpt lat="45.95992" lon="6.54483">
        <ele>2161</ele>
        <time>2024-05-26T07:23:02Z</time>
      </trkpt>
      <trkpt lat="45.95985" lon="6.54491">
        <ele>2167</ele>
        <time>2024-05-26T07:23:25Z</time>
      </trkpt>
      <trkpt lat="45.95979" lon="6.54501">
        <ele>2170</ele>
        <time>2024-05-26T07:24:11Z</time>
      </trkpt>
      <trkpt lat="45.95969" lon="6.54502">
        <ele>2170</ele>
        <time>2024-05-26T07:25:29Z</time>
      </trkpt>
      <trkpt lat="45.9596" lon="6.54505">
        <ele>2172</ele>
        <time>2024-05-26T07:26:00Z</time>
      </trkpt>
      <trkpt lat="45.95953" lon="6.54496">
        <ele>2173</ele>
        <time>2024-05-26T07:26:20Z</time>
      </trkpt>
      <trkpt lat="45.95944" lon="6.545">
        <ele>2174</ele>
        <time>2024-05-26T07:27:12Z</time>
      </trkpt>
      <trkpt lat="45.95935" lon="6.54497">
        <ele>2174</ele>
        <time>2024-05-26T07:27:26Z</time>
      </trkpt>
      <trkpt lat="45.95927" lon="6.54503">
        <ele>2175</ele>
        <time>2024-05-26T07:27:41Z</time>
      </trkpt>
      <trkpt lat="45.95923" lon="6.54505">
        <ele>2177</ele>
        <time>2024-05-26T07:31:34Z</time>
      </trkpt>
      <trkpt lat="45.95917" lon="6.54511">
        <ele>2179</ele>
        <time>2024-05-26T07:31:45Z</time>
      </trkpt>
      <trkpt lat="45.95911" lon="6.54524">
        <ele>2180</ele>
        <time>2024-05-26T07:32:02Z</time>
      </trkpt>
      <trkpt lat="45.95905" lon="6.54536">
        <ele>2181</ele>
        <time>2024-05-26T07:32:17Z</time>
      </trkpt>
      <trkpt lat="45.95898" lon="6.54543">
        <ele>2184</ele>
        <time>2024-05-26T07:32:36Z</time>
      </trkpt>
      <trkpt lat="45.95893" lon="6.54554">
        <ele>2188</ele>
        <time>2024-05-26T07:32:51Z</time>
      </trkpt>
      <trkpt lat="45.95887" lon="6.54565">
        <ele>2191</ele>
        <time>2024-05-26T07:33:08Z</time>
      </trkpt>
      <trkpt lat="45.95891" lon="6.54577">
        <ele>2193</ele>
        <time>2024-05-26T07:33:23Z</time>
      </trkpt>
      <trkpt lat="45.95898" lon="6.54585">
        <ele>2193</ele>
        <time>2024-05-26T07:33:36Z</time>
      </trkpt>
      <trkpt lat="45.95907" lon="6.54589">
        <ele>2194</ele>
        <time>2024-05-26T07:33:56Z</time>
      </trkpt>
      <trkpt lat="45.95913" lon="6.54599">
        <ele>2193</ele>
        <time>2024-05-26T07:34:11Z</time>
      </trkpt>
      <trkpt lat="45.95917" lon="6.5461">
        <ele>2197</ele>
        <time>2024-05-26T07:34:37Z</time>
      </trkpt>
      <trkpt lat="45.95923" lon="6.54622">
        <ele>2199</ele>
        <time>2024-05-26T07:34:56Z</time>
      </trkpt>
      <trkpt lat="45.95929" lon="6.54631">
        <ele>2202</ele>
        <time>2024-05-26T07:35:11Z</time>
      </trkpt>
      <trkpt lat="45.95923" lon="6.54642">
        <ele>2204</ele>
        <time>2024-05-26T07:35:24Z</time>
      </trkpt>
      <trkpt lat="45.95914" lon="6.54646">
        <ele>2209</ele>
        <time>2024-05-26T07:35:39Z</time>
      </trkpt>
      <trkpt lat="45.95906" lon="6.5465">
        <ele>2213</ele>
        <time>2024-05-26T07:36:06Z</time>
      </trkpt>
      <trkpt lat="45.95898" lon="6.54657">
        <ele>2217</ele>
        <time>2024-05-26T07:36:25Z</time>
      </trkpt>
      <trkpt lat="45.95902" lon="6.54668">
        <ele>2218</ele>
        <time>2024-05-26T07:36:38Z</time>
      </trkpt>
      <trkpt lat="45.95907" lon="6.54679">
        <ele>2215</ele>
        <time>2024-05-26T07:36:57Z</time>
      </trkpt>
      <trkpt lat="45.95914" lon="6.54689">
        <ele>2215</ele>
        <time>2024-05-26T07:37:14Z</time>
      </trkpt>
      <trkpt lat="45.9592" lon="6.54699">
        <ele>2219</ele>
        <time>2024-05-26T07:37:34Z</time>
      </trkpt>
      <trkpt lat="45.95925" lon="6.5471">
        <ele>2221</ele>
        <time>2024-05-26T07:37:54Z</time>
      </trkpt>
      <trkpt lat="45.95928" lon="6.54723">
        <ele>2223</ele>
        <time>2024-05-26T07:38:15Z</time>
      </trkpt>
      <trkpt lat="45.95931" lon="6.54736">
        <ele>2225</ele>
        <time>2024-05-26T07:38:36Z</time>
      </trkpt>
      <trkpt lat="45.95934" lon="6.54748">
        <ele>2226</ele>
        <time>2024-05-26T07:38:50Z</time>
      </trkpt>
      <trkpt lat="45.95938" lon="6.5476">
        <ele>2226</ele>
        <time>2024-05-26T07:39:08Z</time>
      </trkpt>
      <trkpt lat="45.95946" lon="6.54785">
        <ele>2232</ele>
        <time>2024-05-26T07:39:52Z</time>
      </trkpt>
      <trkpt lat="45.95947" lon="6.54798">
        <ele>2237</ele>
        <time>2024-05-26T07:40:13Z</time>
      </trkpt>
      <trkpt lat="45.95953" lon="6.54807">
        <ele>2240</ele>
        <time>2024-05-26T07:40:35Z</time>
      </trkpt>
      <trkpt lat="45.95954" lon="6.5482">
        <ele>2244</ele>
        <time>2024-05-26T07:40:57Z</time>
      </trkpt>
      <trkpt lat="45.95952" lon="6.54834">
        <ele>2246</ele>
        <time>2024-05-26T07:41:17Z</time>
      </trkpt>
      <trkpt lat="45.9595" lon="6.54847">
        <ele>2250</ele>
        <time>2024-05-26T07:41:35Z</time>
      </trkpt>
      <trkpt lat="45.9595" lon="6.54874">
        <ele>2254</ele>
        <time>2024-05-26T07:42:05Z</time>
      </trkpt>
      <trkpt lat="45.95951" lon="6.549">
        <ele>2255</ele>
        <time>2024-05-26T07:42:32Z</time>
      </trkpt>
      <trkpt lat="45.95957" lon="6.54911">
        <ele>2255</ele>
        <time>2024-05-26T07:42:47Z</time>
      </trkpt>
      <trkpt lat="45.95963" lon="6.54921">
        <ele>2256</ele>
        <time>2024-05-26T07:43:01Z</time>
      </trkpt>
      <trkpt lat="45.9597" lon="6.5493">
        <ele>2257</ele>
        <time>2024-05-26T07:43:17Z</time>
      </trkpt>
      <trkpt lat="45.95976" lon="6.5494">
        <ele>2260</ele>
        <time>2024-05-26T07:43:35Z</time>
      </trkpt>
      <trkpt lat="45.95974" lon="6.54954">
        <ele>2261</ele>
        <time>2024-05-26T07:43:54Z</time>
      </trkpt>
      <trkpt lat="45.95973" lon="6.54966">
        <ele>2265</ele>
        <time>2024-05-26T07:44:09Z</time>
      </trkpt>
      <trkpt lat="45.95978" lon="6.54977">
        <ele>2266</ele>
        <time>2024-05-26T07:44:24Z</time>
      </trkpt>
      <trkpt lat="45.95983" lon="6.54988">
        <ele>2267</ele>
        <time>2024-05-26T07:44:48Z</time>
      </trkpt>
      <trkpt lat="45.9599" lon="6.54998">
        <ele>2267</ele>
        <time>2024-05-26T07:45:03Z</time>
      </trkpt>
      <trkpt lat="45.95996" lon="6.5501">
        <ele>2271</ele>
        <time>2024-05-26T07:45:19Z</time>
      </trkpt>
      <trkpt lat="45.95999" lon="6.55022">
        <ele>2273</ele>
        <time>2024-05-26T07:45:37Z</time>
      </trkpt>
      <trkpt lat="45.96004" lon="6.55033">
        <ele>2276</ele>
        <time>2024-05-26T07:46:00Z</time>
      </trkpt>
      <trkpt lat="45.96012" lon="6.5504">
        <ele>2278</ele>
        <time>2024-05-26T07:46:37Z</time>
      </trkpt>
      <trkpt lat="45.96015" lon="6.55053">
        <ele>2282</ele>
        <time>2024-05-26T07:46:53Z</time>
      </trkpt>
      <trkpt lat="45.96028" lon="6.55071">
        <ele>2283</ele>
        <time>2024-05-26T07:47:24Z</time>
      </trkpt>
      <trkpt lat="45.96035" lon="6.5508">
        <ele>2285</ele>
        <time>2024-05-26T07:47:40Z</time>
      </trkpt>
      <trkpt lat="45.96042" lon="6.55088">
        <ele>2290</ele>
        <time>2024-05-26T07:47:56Z</time>
      </trkpt>
      <trkpt lat="45.96051" lon="6.55111">
        <ele>2293</ele>
        <time>2024-05-26T07:48:34Z</time>
      </trkpt>
      <trkpt lat="45.96055" lon="6.55123">
        <ele>2294</ele>
        <time>2024-05-26T07:48:58Z</time>
      </trkpt>
      <trkpt lat="45.96065" lon="6.55141">
        <ele>2301</ele>
        <time>2024-05-26T07:49:35Z</time>
      </trkpt>
      <trkpt lat="45.96065" lon="6.55146">
        <ele>2301</ele>
        <time>2024-05-26T07:49:40Z</time>
      </trkpt>
      <trkpt lat="45.96067" lon="6.55151">
        <ele>2302</ele>
        <time>2024-05-26T07:49:45Z</time>
      </trkpt>
      <trkpt lat="45.96069" lon="6.55155">
        <ele>2302</ele>
        <time>2024-05-26T07:49:57Z</time>
      </trkpt>
      <trkpt lat="45.9607" lon="6.5516">
        <ele>2303</ele>
        <time>2024-05-26T07:50:04Z</time>
      </trkpt>
      <trkpt lat="45.96071" lon="6.55165">
        <ele>2303</ele>
        <time>2024-05-26T07:50:12Z</time>
      </trkpt>
      <trkpt lat="45.96071" lon="6.55171">
        <ele>2307</ele>
        <time>2024-05-26T07:50:19Z</time>
      </trkpt>
      <trkpt lat="45.96067" lon="6.55174">
        <ele>2311</ele>
        <time>2024-05-26T07:50:27Z</time>
      </trkpt>
      <trkpt lat="45.96064" lon="6.55173">
        <ele>2315</ele>
        <time>2024-05-26T07:50:33Z</time>
      </trkpt>
      <trkpt lat="45.96055" lon="6.55178">
        <ele>2317</ele>
        <time>2024-05-26T07:50:49Z</time>
      </trkpt>
      <trkpt lat="45.96047" lon="6.55185">
        <ele>2318</ele>
        <time>2024-05-26T07:51:04Z</time>
      </trkpt>
      <trkpt lat="45.9604" lon="6.55194">
        <ele>2317</ele>
        <time>2024-05-26T07:51:19Z</time>
      </trkpt>
      <trkpt lat="45.96042" lon="6.55205">
        <ele>2315</ele>
        <time>2024-05-26T07:51:30Z</time>
      </trkpt>
      <trkpt lat="45.96044" lon="6.55215">
        <ele>2315</ele>
        <time>2024-05-26T07:51:43Z</time>
      </trkpt>
      <trkpt lat="45.96049" lon="6.55223">
        <ele>2315</ele>
        <time>2024-05-26T07:51:55Z</time>
      </trkpt>
      <trkpt lat="45.96052" lon="6.55227">
        <ele>2315</ele>
        <time>2024-05-26T07:52:01Z</time>
      </trkpt>
      <trkpt lat="45.96052" lon="6.55232">
        <ele>2315</ele>
        <time>2024-05-26T07:52:12Z</time>
      </trkpt>
      <trkpt lat="45.96058" lon="6.55242">
        <ele>2317</ele>
        <time>2024-05-26T07:58:31Z</time>
      </trkpt>
      <trkpt lat="45.96069" lon="6.55265">
        <ele>2316</ele>
        <time>2024-05-26T07:58:53Z</time>
      </trkpt>
      <trkpt lat="45.96079" lon="6.55288">
        <ele>2318</ele>
        <time>2024-05-26T07:59:16Z</time>
      </trkpt>
      <trkpt lat="45.96083" lon="6.553">
        <ele>2317</ele>
        <time>2024-05-26T07:59:30Z</time>
      </trkpt>
      <trkpt lat="45.96088" lon="6.55311">
        <ele>2319</ele>
        <time>2024-05-26T07:59:44Z</time>
      </trkpt>
      <trkpt lat="45.961" lon="6.55332">
        <ele>2320</ele>
        <time>2024-05-26T08:00:15Z</time>
      </trkpt>
      <trkpt lat="45.96112" lon="6.55353">
        <ele>2326</ele>
        <time>2024-05-26T08:00:49Z</time>
      </trkpt>
      <trkpt lat="45.96114" lon="6.55365">
        <ele>2330</ele>
        <time>2024-05-26T08:01:10Z</time>
      </trkpt>
      <trkpt lat="45.96118" lon="6.55377">
        <ele>2332</ele>
        <time>2024-05-26T08:01:32Z</time>
      </trkpt>
      <trkpt lat="45.96125" lon="6.55387">
        <ele>2337</ele>
        <time>2024-05-26T08:01:50Z</time>
      </trkpt>
      <trkpt lat="45.9613" lon="6.55398">
        <ele>2339</ele>
        <time>2024-05-26T08:02:10Z</time>
      </trkpt>
      <trkpt lat="45.9613" lon="6.55411">
        <ele>2341</ele>
        <time>2024-05-26T08:02:32Z</time>
      </trkpt>
      <trkpt lat="45.96133" lon="6.55424">
        <ele>2343</ele>
        <time>2024-05-26T08:02:53Z</time>
      </trkpt>
      <trkpt lat="45.9614" lon="6.55434">
        <ele>2347</ele>
        <time>2024-05-26T08:03:16Z</time>
      </trkpt>
      <trkpt lat="45.96143" lon="6.55447">
        <ele>2350</ele>
        <time>2024-05-26T08:03:35Z</time>
      </trkpt>
      <trkpt lat="45.96146" lon="6.55459">
        <ele>2353</ele>
        <time>2024-05-26T08:04:00Z</time>
      </trkpt>
      <trkpt lat="45.9615" lon="6.55471">
        <ele>2356</ele>
        <time>2024-05-26T08:04:18Z</time>
      </trkpt>
      <trkpt lat="45.96152" lon="6.55483">
        <ele>2360</ele>
        <time>2024-05-26T08:04:38Z</time>
      </trkpt>
      <trkpt lat="45.96155" lon="6.55496">
        <ele>2362</ele>
        <time>2024-05-26T08:05:01Z</time>
      </trkpt>
      <trkpt lat="45.96159" lon="6.55507">
        <ele>2364</ele>
        <time>2024-05-26T08:05:25Z</time>
      </trkpt>
      <trkpt lat="45.96162" lon="6.5552">
        <ele>2371</ele>
        <time>2024-05-26T08:05:52Z</time>
      </trkpt>
      <trkpt lat="45.96163" lon="6.55533">
        <ele>2372</ele>
        <time>2024-05-26T08:06:10Z</time>
      </trkpt>
      <trkpt lat="45.96165" lon="6.55546">
        <ele>2376</ele>
        <time>2024-05-26T08:06:33Z</time>
      </trkpt>
      <trkpt lat="45.96167" lon="6.55559">
        <ele>2379</ele>
        <time>2024-05-26T08:06:57Z</time>
      </trkpt>
      <trkpt lat="45.96161" lon="6.55569">
        <ele>2380</ele>
        <time>2024-05-26T08:07:17Z</time>
      </trkpt>
      <trkpt lat="45.96155" lon="6.55579">
        <ele>2384</ele>
        <time>2024-05-26T08:07:42Z</time>
      </trkpt>
      <trkpt lat="45.9615" lon="6.55591">
        <ele>2385</ele>
        <time>2024-05-26T08:08:01Z</time>
      </trkpt>
      <trkpt lat="45.96146" lon="6.55602">
        <ele>2390</ele>
        <time>2024-05-26T08:08:22Z</time>
      </trkpt>
      <trkpt lat="45.96144" lon="6.55616">
        <ele>2391</ele>
        <time>2024-05-26T08:08:40Z</time>
      </trkpt>
      <trkpt lat="45.96139" lon="6.55642">
        <ele>2395</ele>
        <time>2024-05-26T08:09:24Z</time>
      </trkpt>
      <trkpt lat="45.96139" lon="6.55668">
        <ele>2401</ele>
        <time>2024-05-26T08:09:56Z</time>
      </trkpt>
      <trkpt lat="45.96142" lon="6.55682">
        <ele>2404</ele>
        <time>2024-05-26T08:10:18Z</time>
      </trkpt>
      <trkpt lat="45.96145" lon="6.55708">
        <ele>2407</ele>
        <time>2024-05-26T08:11:00Z</time>
      </trkpt>
      <trkpt lat="45.96145" lon="6.55722">
        <ele>2410</ele>
        <time>2024-05-26T08:11:18Z</time>
      </trkpt>
      <trkpt lat="45.96151" lon="6.55733">
        <ele>2410</ele>
        <time>2024-05-26T08:11:35Z</time>
      </trkpt>
      <trkpt lat="45.96147" lon="6.55745">
        <ele>2410</ele>
        <time>2024-05-26T08:12:59Z</time>
      </trkpt>
      <trkpt lat="45.96149" lon="6.55758">
        <ele>2413</ele>
        <time>2024-05-26T08:13:15Z</time>
      </trkpt>
      <trkpt lat="45.96154" lon="6.55769">
        <ele>2414</ele>
        <time>2024-05-26T08:13:37Z</time>
      </trkpt>
      <trkpt lat="45.96162" lon="6.55777">
        <ele>2415</ele>
        <time>2024-05-26T08:13:55Z</time>
      </trkpt>
      <trkpt lat="45.96169" lon="6.55786">
        <ele>2416</ele>
        <time>2024-05-26T08:14:14Z</time>
      </trkpt>
      <trkpt lat="45.96176" lon="6.55795">
        <ele>2422</ele>
        <time>2024-05-26T08:14:51Z</time>
      </trkpt>
      <trkpt lat="45.9618" lon="6.55807">
        <ele>2422</ele>
        <time>2024-05-26T08:15:10Z</time>
      </trkpt>
      <trkpt lat="45.96186" lon="6.55832">
        <ele>2431</ele>
        <time>2024-05-26T08:15:55Z</time>
      </trkpt>
      <trkpt lat="45.96185" lon="6.55845">
        <ele>2438</ele>
        <time>2024-05-26T08:16:46Z</time>
      </trkpt>
      <trkpt lat="45.96189" lon="6.55857">
        <ele>2440</ele>
        <time>2024-05-26T08:17:14Z</time>
      </trkpt>
      <trkpt lat="45.9619" lon="6.5587">
        <ele>2445</ele>
        <time>2024-05-26T08:17:32Z</time>
      </trkpt>
      <trkpt lat="45.9619" lon="6.55872">
        <ele>2448</ele>
        <time>2024-05-26T08:18:07Z</time>
      </trkpt>
      <trkpt lat="45.96186" lon="6.5587">
        <ele>2449</ele>
        <time>2024-05-26T08:18:14Z</time>
      </trkpt>
      <trkpt lat="45.96183" lon="6.55869">
        <ele>2450</ele>
        <time>2024-05-26T08:18:30Z</time>
      </trkpt>
      <trkpt lat="45.96179" lon="6.55868">
        <ele>2451</ele>
        <time>2024-05-26T08:18:37Z</time>
      </trkpt>
      <trkpt lat="45.9618" lon="6.55874">
        <ele>2451</ele>
        <time>2024-05-26T08:18:49Z</time>
      </trkpt>
      <trkpt lat="45.96179" lon="6.55887">
        <ele>2452</ele>
        <time>2024-05-26T08:19:07Z</time>
      </trkpt>
      <trkpt lat="45.96172" lon="6.55894">
        <ele>2457</ele>
        <time>2024-05-26T08:20:07Z</time>
      </trkpt>
      <trkpt lat="45.96164" lon="6.55902">
        <ele>2469</ele>
        <time>2024-05-26T08:21:55Z</time>
      </trkpt>
      <trkpt lat="45.96155" lon="6.55906">
        <ele>2471</ele>
        <time>2024-05-26T08:23:58Z</time>
      </trkpt>
      <trkpt lat="45.96149" lon="6.55911">
        <ele>2478</ele>
        <time>2024-05-26T08:25:35Z</time>
      </trkpt>
      <trkpt lat="45.96148" lon="6.55905">
        <ele>2483</ele>
        <time>2024-05-26T08:50:48Z</time>
      </trkpt>
      <trkpt lat="45.96148" lon="6.55905">
        <ele>2483</ele>
        <time>2024-05-26T08:50:49Z</time>
      </trkpt>
      <trkpt lat="45.96157" lon="6.55916">
        <ele>2481</ele>
        <time>2024-05-26T09:18:46Z</time>
      </trkpt>
      <trkpt lat="45.96165" lon="6.55909">
        <ele>2481</ele>
        <time>2024-05-26T09:18:53Z</time>
      </trkpt>
      <trkpt lat="45.96173" lon="6.55904">
        <ele>2466</ele>
        <time>2024-05-26T09:18:58Z</time>
      </trkpt>
      <trkpt lat="45.96174" lon="6.55891">
        <ele>2464</ele>
        <time>2024-05-26T09:19:17Z</time>
      </trkpt>
      <trkpt lat="45.96184" lon="6.55882">
        <ele>2455</ele>
        <time>2024-05-26T09:19:21Z</time>
      </trkpt>
      <trkpt lat="45.9618" lon="6.55877">
        <ele>2454</ele>
        <time>2024-05-26T09:19:23Z</time>
      </trkpt>
      <trkpt lat="45.96188" lon="6.55874">
        <ele>2449</ele>
        <time>2024-05-26T09:19:58Z</time>
      </trkpt>
      <trkpt lat="45.96192" lon="6.5586">
        <ele>2449</ele>
        <time>2024-05-26T09:20:03Z</time>
      </trkpt>
      <trkpt lat="45.96203" lon="6.55862">
        <ele>2444</ele>
        <time>2024-05-26T09:20:07Z</time>
      </trkpt>
      <trkpt lat="45.96201" lon="6.55844">
        <ele>2442</ele>
        <time>2024-05-26T09:20:10Z</time>
      </trkpt>
      <trkpt lat="45.96196" lon="6.55832">
        <ele>2437</ele>
        <time>2024-05-26T09:20:12Z</time>
      </trkpt>
      <trkpt lat="45.96189" lon="6.55818">
        <ele>2434</ele>
        <time>2024-05-26T09:20:15Z</time>
      </trkpt>
      <trkpt lat="45.96192" lon="6.55802">
        <ele>2431</ele>
        <time>2024-05-26T09:20:20Z</time>
      </trkpt>
      <trkpt lat="45.96185" lon="6.55788">
        <ele>2429</ele>
        <time>2024-05-26T09:20:23Z</time>
      </trkpt>
      <trkpt lat="45.96168" lon="6.55769">
        <ele>2424</ele>
        <time>2024-05-26T09:20:29Z</time>
      </trkpt>
      <trkpt lat="45.96156" lon="6.5576">
        <ele>2421</ele>
        <time>2024-05-26T09:20:32Z</time>
      </trkpt>
      <trkpt lat="45.96149" lon="6.5575">
        <ele>2420</ele>
        <time>2024-05-26T09:20:34Z</time>
      </trkpt>
      <trkpt lat="45.96151" lon="6.55732">
        <ele>2417</ele>
        <time>2024-05-26T09:20:39Z</time>
      </trkpt>
      <trkpt lat="45.96149" lon="6.55718">
        <ele>2415</ele>
        <time>2024-05-26T09:20:41Z</time>
      </trkpt>
      <trkpt lat="45.96149" lon="6.55701">
        <ele>2413</ele>
        <time>2024-05-26T09:20:43Z</time>
      </trkpt>
      <trkpt lat="45.96146" lon="6.5568">
        <ele>2408</ele>
        <time>2024-05-26T09:20:45Z</time>
      </trkpt>
      <trkpt lat="45.96144" lon="6.55658">
        <ele>2405</ele>
        <time>2024-05-26T09:20:47Z</time>
      </trkpt>
      <trkpt lat="45.96141" lon="6.55637">
        <ele>2403</ele>
        <time>2024-05-26T09:20:49Z</time>
      </trkpt>
      <trkpt lat="45.96137" lon="6.55606">
        <ele>2400</ele>
        <time>2024-05-26T09:20:53Z</time>
      </trkpt>
      <trkpt lat="45.96128" lon="6.55578">
        <ele>2396</ele>
        <time>2024-05-26T09:21:00Z</time>
      </trkpt>
      <trkpt lat="45.96121" lon="6.55563">
        <ele>2393</ele>
        <time>2024-05-26T09:21:04Z</time>
      </trkpt>
      <trkpt lat="45.96113" lon="6.55553">
        <ele>2391</ele>
        <time>2024-05-26T09:21:07Z</time>
      </trkpt>
      <trkpt lat="45.96108" lon="6.55539">
        <ele>2390</ele>
        <time>2024-05-26T09:21:27Z</time>
      </trkpt>
      <trkpt lat="45.96111" lon="6.55522">
        <ele>2387</ele>
        <time>2024-05-26T09:21:30Z</time>
      </trkpt>
      <trkpt lat="45.96117" lon="6.55508">
        <ele>2384</ele>
        <time>2024-05-26T09:21:32Z</time>
      </trkpt>
      <trkpt lat="45.96118" lon="6.55492">
        <ele>2379</ele>
        <time>2024-05-26T09:21:34Z</time>
      </trkpt>
      <trkpt lat="45.96119" lon="6.55471">
        <ele>2374</ele>
        <time>2024-05-26T09:21:37Z</time>
      </trkpt>
      <trkpt lat="45.96122" lon="6.55457">
        <ele>2370</ele>
        <time>2024-05-26T09:21:39Z</time>
      </trkpt>
      <trkpt lat="45.96134" lon="6.55456">
        <ele>2369</ele>
        <time>2024-05-26T09:21:41Z</time>
      </trkpt>
      <trkpt lat="45.96127" lon="6.55439">
        <ele>2367</ele>
        <time>2024-05-26T09:21:44Z</time>
      </trkpt>
      <trkpt lat="45.96111" lon="6.55418">
        <ele>2360</ele>
        <time>2024-05-26T09:21:48Z</time>
      </trkpt>
      <trkpt lat="45.96103" lon="6.55415">
        <ele>2357</ele>
        <time>2024-05-26T09:21:51Z</time>
      </trkpt>
      <trkpt lat="45.96107" lon="6.55403">
        <ele>2353</ele>
        <time>2024-05-26T09:22:20Z</time>
      </trkpt>
      <trkpt lat="45.96105" lon="6.55389">
        <ele>2349</ele>
        <time>2024-05-26T09:22:22Z</time>
      </trkpt>
      <trkpt lat="45.96111" lon="6.55368">
        <ele>2346</ele>
        <time>2024-05-26T09:22:25Z</time>
      </trkpt>
      <trkpt lat="45.96108" lon="6.55355">
        <ele>2341</ele>
        <time>2024-05-26T09:22:27Z</time>
      </trkpt>
      <trkpt lat="45.96104" lon="6.55342">
        <ele>2340</ele>
        <time>2024-05-26T09:22:29Z</time>
      </trkpt>
      <trkpt lat="45.96096" lon="6.55328">
        <ele>2336</ele>
        <time>2024-05-26T09:22:31Z</time>
      </trkpt>
      <trkpt lat="45.96087" lon="6.55315">
        <ele>2332</ele>
        <time>2024-05-26T09:22:33Z</time>
      </trkpt>
      <trkpt lat="45.96079" lon="6.55305">
        <ele>2329</ele>
        <time>2024-05-26T09:22:38Z</time>
      </trkpt>
      <trkpt lat="45.96079" lon="6.5529">
        <ele>2326</ele>
        <time>2024-05-26T09:22:40Z</time>
      </trkpt>
      <trkpt lat="45.96071" lon="6.55249">
        <ele>2322</ele>
        <time>2024-05-26T09:22:59Z</time>
      </trkpt>
      <trkpt lat="45.96065" lon="6.55238">
        <ele>2319</ele>
        <time>2024-05-26T09:23:12Z</time>
      </trkpt>
      <trkpt lat="45.96047" lon="6.552">
        <ele>2316</ele>
        <time>2024-05-26T09:23:27Z</time>
      </trkpt>
      <trkpt lat="45.96046" lon="6.55184">
        <ele>2313</ele>
        <time>2024-05-26T09:23:30Z</time>
      </trkpt>
      <trkpt lat="45.96053" lon="6.55173">
        <ele>2313</ele>
        <time>2024-05-26T09:23:35Z</time>
      </trkpt>
      <trkpt lat="45.96062" lon="6.55171">
        <ele>2310</ele>
        <time>2024-05-26T09:23:38Z</time>
      </trkpt>
      <trkpt lat="45.96064" lon="6.55155">
        <ele>2308</ele>
        <time>2024-05-26T09:24:20Z</time>
      </trkpt>
      <trkpt lat="45.96068" lon="6.5514">
        <ele>2303</ele>
        <time>2024-05-26T09:24:23Z</time>
      </trkpt>
      <trkpt lat="45.96063" lon="6.55124">
        <ele>2300</ele>
        <time>2024-05-26T09:24:26Z</time>
      </trkpt>
      <trkpt lat="45.96057" lon="6.55112">
        <ele>2296</ele>
        <time>2024-05-26T09:24:28Z</time>
      </trkpt>
      <trkpt lat="45.96043" lon="6.55081">
        <ele>2291</ele>
        <time>2024-05-26T09:24:32Z</time>
      </trkpt>
      <trkpt lat="45.96023" lon="6.55062">
        <ele>2286</ele>
        <time>2024-05-26T09:24:36Z</time>
      </trkpt>
      <trkpt lat="45.96012" lon="6.55056">
        <ele>2283</ele>
        <time>2024-05-26T09:24:39Z</time>
      </trkpt>
      <trkpt lat="45.96006" lon="6.55046">
        <ele>2282</ele>
        <time>2024-05-26T09:24:43Z</time>
      </trkpt>
      <trkpt lat="45.96001" lon="6.55018">
        <ele>2277</ele>
        <time>2024-05-26T09:24:54Z</time>
      </trkpt>
      <trkpt lat="45.95993" lon="6.54988">
        <ele>2272</ele>
        <time>2024-05-26T09:24:58Z</time>
      </trkpt>
      <trkpt lat="45.95985" lon="6.54973">
        <ele>2270</ele>
        <time>2024-05-26T09:25:01Z</time>
      </trkpt>
      <trkpt lat="45.9598" lon="6.54957">
        <ele>2268</ele>
        <time>2024-05-26T09:25:04Z</time>
      </trkpt>
      <trkpt lat="45.95975" lon="6.54942">
        <ele>2266</ele>
        <time>2024-05-26T09:25:07Z</time>
      </trkpt>
      <trkpt lat="45.9597" lon="6.54931">
        <ele>2262</ele>
        <time>2024-05-26T09:25:09Z</time>
      </trkpt>
      <trkpt lat="45.95964" lon="6.54915">
        <ele>2259</ele>
        <time>2024-05-26T09:25:11Z</time>
      </trkpt>
      <trkpt lat="45.95959" lon="6.54903">
        <ele>2255</ele>
        <time>2024-05-26T09:25:13Z</time>
      </trkpt>
      <trkpt lat="45.95954" lon="6.54888">
        <ele>2253</ele>
        <time>2024-05-26T09:25:16Z</time>
      </trkpt>
      <trkpt lat="45.95951" lon="6.54855">
        <ele>2249</ele>
        <time>2024-05-26T09:25:23Z</time>
      </trkpt>
      <trkpt lat="45.95952" lon="6.54841">
        <ele>2247</ele>
        <time>2024-05-26T09:25:26Z</time>
      </trkpt>
      <trkpt lat="45.95952" lon="6.54825">
        <ele>2247</ele>
        <time>2024-05-26T09:25:29Z</time>
      </trkpt>
      <trkpt lat="45.95942" lon="6.54816">
        <ele>2244</ele>
        <time>2024-05-26T09:25:32Z</time>
      </trkpt>
      <trkpt lat="45.95947" lon="6.54804">
        <ele>2240</ele>
        <time>2024-05-26T09:27:27Z</time>
      </trkpt>
      <trkpt lat="45.95952" lon="6.5479">
        <ele>2238</ele>
        <time>2024-05-26T09:27:29Z</time>
      </trkpt>
      <trkpt lat="45.9596" lon="6.54776">
        <ele>2235</ele>
        <time>2024-05-26T09:27:31Z</time>
      </trkpt>
      <trkpt lat="45.95959" lon="6.54759">
        <ele>2230</ele>
        <time>2024-05-26T09:27:33Z</time>
      </trkpt>
      <trkpt lat="45.95946" lon="6.54727">
        <ele>2226</ele>
        <time>2024-05-26T09:27:37Z</time>
      </trkpt>
      <trkpt lat="45.95932" lon="6.54701">
        <ele>2223</ele>
        <time>2024-05-26T09:27:41Z</time>
      </trkpt>
      <trkpt lat="45.95908" lon="6.54668">
        <ele>2219</ele>
        <time>2024-05-26T09:27:47Z</time>
      </trkpt>
      <trkpt lat="45.95888" lon="6.54642">
        <ele>2214</ele>
        <time>2024-05-26T09:27:51Z</time>
      </trkpt>
      <trkpt lat="45.9588" lon="6.54635">
        <ele>2212</ele>
        <time>2024-05-26T09:27:53Z</time>
      </trkpt>
      <trkpt lat="45.95881" lon="6.54618">
        <ele>2208</ele>
        <time>2024-05-26T09:28:36Z</time>
      </trkpt>
      <trkpt lat="45.95879" lon="6.54602">
        <ele>2204</ele>
        <time>2024-05-26T09:28:39Z</time>
      </trkpt>
      <trkpt lat="45.95884" lon="6.54591">
        <ele>2202</ele>
        <time>2024-05-26T09:28:40Z</time>
      </trkpt>
      <trkpt lat="45.95884" lon="6.5457">
        <ele>2198</ele>
        <time>2024-05-26T09:28:42Z</time>
      </trkpt>
      <trkpt lat="45.9588" lon="6.54548">
        <ele>2194</ele>
        <time>2024-05-26T09:28:44Z</time>
      </trkpt>
      <trkpt lat="45.95877" lon="6.54527">
        <ele>2192</ele>
        <time>2024-05-26T09:28:46Z</time>
      </trkpt>
      <trkpt lat="45.95872" lon="6.5451">
        <ele>2189</ele>
        <time>2024-05-26T09:28:48Z</time>
      </trkpt>
      <trkpt lat="45.95874" lon="6.54495">
        <ele>2186</ele>
        <time>2024-05-26T09:28:50Z</time>
      </trkpt>
      <trkpt lat="45.95873" lon="6.54478">
        <ele>2179</ele>
        <time>2024-05-26T09:28:52Z</time>
      </trkpt>
      <trkpt lat="45.95869" lon="6.54462">
        <ele>2175</ele>
        <time>2024-05-26T09:28:54Z</time>
      </trkpt>
      <trkpt lat="45.95864" lon="6.5445">
        <ele>2169</ele>
        <time>2024-05-26T09:28:56Z</time>
      </trkpt>
      <trkpt lat="45.95874" lon="6.54445">
        <ele>2160</ele>
        <time>2024-05-26T09:30:03Z</time>
      </trkpt>
      <trkpt lat="45.95882" lon="6.54439">
        <ele>2158</ele>
        <time>2024-05-26T09:30:05Z</time>
      </trkpt>
      <trkpt lat="45.9589" lon="6.54432">
        <ele>2156</ele>
        <time>2024-05-26T09:30:07Z</time>
      </trkpt>
      <trkpt lat="45.95897" lon="6.54417">
        <ele>2154</ele>
        <time>2024-05-26T09:30:09Z</time>
      </trkpt>
      <trkpt lat="45.9589" lon="6.54399">
        <ele>2152</ele>
        <time>2024-05-26T09:30:11Z</time>
      </trkpt>
      <trkpt lat="45.959" lon="6.54386">
        <ele>2147</ele>
        <time>2024-05-26T09:30:13Z</time>
      </trkpt>
      <trkpt lat="45.95895" lon="6.54371">
        <ele>2143</ele>
        <time>2024-05-26T09:30:15Z</time>
      </trkpt>
      <trkpt lat="45.95891" lon="6.54354">
        <ele>2135</ele>
        <time>2024-05-26T09:30:18Z</time>
      </trkpt>
      <trkpt lat="45.95896" lon="6.54342">
        <ele>2132</ele>
        <time>2024-05-26T09:30:21Z</time>
      </trkpt>
      <trkpt lat="45.95904" lon="6.54331">
        <ele>2123</ele>
        <time>2024-05-26T09:31:04Z</time>
      </trkpt>
      <trkpt lat="45.95906" lon="6.54314">
        <ele>2121</ele>
        <time>2024-05-26T09:31:07Z</time>
      </trkpt>
      <trkpt lat="45.95917" lon="6.5431">
        <ele>2118</ele>
        <time>2024-05-26T09:31:09Z</time>
      </trkpt>
      <trkpt lat="45.95927" lon="6.54302">
        <ele>2115</ele>
        <time>2024-05-26T09:31:12Z</time>
      </trkpt>
      <trkpt lat="45.95929" lon="6.54289">
        <ele>2112</ele>
        <time>2024-05-26T09:31:15Z</time>
      </trkpt>
      <trkpt lat="45.95938" lon="6.54279">
        <ele>2110</ele>
        <time>2024-05-26T09:31:17Z</time>
      </trkpt>
      <trkpt lat="45.95955" lon="6.54261">
        <ele>2105</ele>
        <time>2024-05-26T09:31:23Z</time>
      </trkpt>
      <trkpt lat="45.95967" lon="6.54257">
        <ele>2101</ele>
        <time>2024-05-26T09:31:26Z</time>
      </trkpt>
      <trkpt lat="45.95977" lon="6.54258">
        <ele>2098</ele>
        <time>2024-05-26T09:31:31Z</time>
      </trkpt>
      <trkpt lat="45.96011" lon="6.54257">
        <ele>2093</ele>
        <time>2024-05-26T09:31:43Z</time>
      </trkpt>
      <trkpt lat="45.96031" lon="6.54261">
        <ele>2089</ele>
        <time>2024-05-26T09:31:49Z</time>
      </trkpt>
      <trkpt lat="45.96063" lon="6.54256">
        <ele>2082</ele>
        <time>2024-05-26T09:31:59Z</time>
      </trkpt>
      <trkpt lat="45.96074" lon="6.54254">
        <ele>2082</ele>
        <time>2024-05-26T09:32:07Z</time>
      </trkpt>
      <trkpt lat="45.96094" lon="6.54251">
        <ele>2080</ele>
        <time>2024-05-26T09:32:15Z</time>
      </trkpt>
      <trkpt lat="45.96126" lon="6.54255">
        <ele>2075</ele>
        <time>2024-05-26T09:32:24Z</time>
      </trkpt>
      <trkpt lat="45.96138" lon="6.54255">
        <ele>2071</ele>
        <time>2024-05-26T09:34:44Z</time>
      </trkpt>
      <trkpt lat="45.96146" lon="6.54241">
        <ele>2069</ele>
        <time>2024-05-26T09:34:47Z</time>
      </trkpt>
      <trkpt lat="45.96154" lon="6.54234">
        <ele>2066</ele>
        <time>2024-05-26T09:34:49Z</time>
      </trkpt>
      <trkpt lat="45.96161" lon="6.54224">
        <ele>2062</ele>
        <time>2024-05-26T09:34:53Z</time>
      </trkpt>
      <trkpt lat="45.96169" lon="6.5421">
        <ele>2056</ele>
        <time>2024-05-26T09:34:56Z</time>
      </trkpt>
      <trkpt lat="45.96181" lon="6.54217">
        <ele>2055</ele>
        <time>2024-05-26T09:34:59Z</time>
      </trkpt>
      <trkpt lat="45.96191" lon="6.54224">
        <ele>2052</ele>
        <time>2024-05-26T09:35:02Z</time>
      </trkpt>
      <trkpt lat="45.96203" lon="6.54228">
        <ele>2049</ele>
        <time>2024-05-26T09:35:06Z</time>
      </trkpt>
      <trkpt lat="45.96201" lon="6.54215">
        <ele>2045</ele>
        <time>2024-05-26T09:35:10Z</time>
      </trkpt>
      <trkpt lat="45.96203" lon="6.54201">
        <ele>2042</ele>
        <time>2024-05-26T09:35:14Z</time>
      </trkpt>
      <trkpt lat="45.96208" lon="6.54189">
        <ele>2036</ele>
        <time>2024-05-26T09:35:17Z</time>
      </trkpt>
      <trkpt lat="45.96203" lon="6.54175">
        <ele>2033</ele>
        <time>2024-05-26T09:35:21Z</time>
      </trkpt>
      <trkpt lat="45.96214" lon="6.54174">
        <ele>2029</ele>
        <time>2024-05-26T09:35:25Z</time>
      </trkpt>
      <trkpt lat="45.96218" lon="6.54161">
        <ele>2022</ele>
        <time>2024-05-26T09:35:49Z</time>
      </trkpt>
      <trkpt lat="45.96228" lon="6.54158">
        <ele>2021</ele>
        <time>2024-05-26T09:35:52Z</time>
      </trkpt>
      <trkpt lat="45.96237" lon="6.54154">
        <ele>2011</ele>
        <time>2024-05-26T09:35:58Z</time>
      </trkpt>
      <trkpt lat="45.96236" lon="6.54137">
        <ele>2011</ele>
        <time>2024-05-26T09:36:16Z</time>
      </trkpt>
      <trkpt lat="45.96243" lon="6.54126">
        <ele>2006</ele>
        <time>2024-05-26T09:36:20Z</time>
      </trkpt>
      <trkpt lat="45.96244" lon="6.54112">
        <ele>2001</ele>
        <time>2024-05-26T09:36:29Z</time>
      </trkpt>
      <trkpt lat="45.96241" lon="6.54096">
        <ele>1994</ele>
        <time>2024-05-26T09:36:34Z</time>
      </trkpt>
      <trkpt lat="45.96233" lon="6.54087">
        <ele>1984</ele>
        <time>2024-05-26T09:36:59Z</time>
      </trkpt>
      <trkpt lat="45.96225" lon="6.54072">
        <ele>1977</ele>
        <time>2024-05-26T09:37:03Z</time>
      </trkpt>
      <trkpt lat="45.96215" lon="6.54064">
        <ele>1975</ele>
        <time>2024-05-26T09:37:05Z</time>
      </trkpt>
      <trkpt lat="45.96208" lon="6.54053">
        <ele>1970</ele>
        <time>2024-05-26T09:37:08Z</time>
      </trkpt>
      <trkpt lat="45.96217" lon="6.54045">
        <ele>1968</ele>
        <time>2024-05-26T09:37:11Z</time>
      </trkpt>
      <trkpt lat="45.9621" lon="6.54036">
        <ele>1967</ele>
        <time>2024-05-26T09:37:13Z</time>
      </trkpt>
      <trkpt lat="45.96204" lon="6.54024">
        <ele>1960</ele>
        <time>2024-05-26T09:37:16Z</time>
      </trkpt>
      <trkpt lat="45.96196" lon="6.54016">
        <ele>1957</ele>
        <time>2024-05-26T09:37:38Z</time>
      </trkpt>
      <trkpt lat="45.96183" lon="6.53998">
        <ele>1954</ele>
        <time>2024-05-26T09:37:44Z</time>
      </trkpt>
      <trkpt lat="45.96177" lon="6.53988">
        <ele>1951</ele>
        <time>2024-05-26T09:37:47Z</time>
      </trkpt>
      <trkpt lat="45.96175" lon="6.53954">
        <ele>1947</ele>
        <time>2024-05-26T09:37:56Z</time>
      </trkpt>
      <trkpt lat="45.96179" lon="6.53938">
        <ele>1943</ele>
        <time>2024-05-26T09:38:14Z</time>
      </trkpt>
      <trkpt lat="45.96191" lon="6.53935">
        <ele>1942</ele>
        <time>2024-05-26T09:38:17Z</time>
      </trkpt>
      <trkpt lat="45.962" lon="6.53938">
        <ele>1934</ele>
        <time>2024-05-26T09:38:25Z</time>
      </trkpt>
      <trkpt lat="45.96208" lon="6.53929">
        <ele>1931</ele>
        <time>2024-05-26T09:38:30Z</time>
      </trkpt>
      <trkpt lat="45.96216" lon="6.53922">
        <ele>1927</ele>
        <time>2024-05-26T09:38:36Z</time>
      </trkpt>
      <trkpt lat="45.96225" lon="6.53916">
        <ele>1921</ele>
        <time>2024-05-26T09:39:57Z</time>
      </trkpt>
      <trkpt lat="45.96231" lon="6.53904">
        <ele>1921</ele>
        <time>2024-05-26T09:40:25Z</time>
      </trkpt>
      <trkpt lat="45.96238" lon="6.53894">
        <ele>1922</ele>
        <time>2024-05-26T09:40:53Z</time>
      </trkpt>
      <trkpt lat="45.9624" lon="6.5388">
        <ele>1925</ele>
        <time>2024-05-26T09:41:01Z</time>
      </trkpt>
      <trkpt lat="45.96247" lon="6.5387">
        <ele>1925</ele>
        <time>2024-05-26T09:41:40Z</time>
      </trkpt>
      <trkpt lat="45.96255" lon="6.53864">
        <ele>1924</ele>
        <time>2024-05-26T09:41:49Z</time>
      </trkpt>
      <trkpt lat="45.96262" lon="6.53855">
        <ele>1923</ele>
        <time>2024-05-26T09:42:11Z</time>
      </trkpt>
      <trkpt lat="45.9627" lon="6.53848">
        <ele>1919</ele>
        <time>2024-05-26T09:42:24Z</time>
      </trkpt>
      <trkpt lat="45.96279" lon="6.53843">
        <ele>1918</ele>
        <time>2024-05-26T09:42:39Z</time>
      </trkpt>
      <trkpt lat="45.96288" lon="6.53836">
        <ele>1917</ele>
        <time>2024-05-26T09:42:50Z</time>
      </trkpt>
      <trkpt lat="45.96297" lon="6.53839">
        <ele>1915</ele>
        <time>2024-05-26T09:43:02Z</time>
      </trkpt>
      <trkpt lat="45.96306" lon="6.53834">
        <ele>1911</ele>
        <time>2024-05-26T09:43:19Z</time>
      </trkpt>
      <trkpt lat="45.96325" lon="6.53829">
        <ele>1912</ele>
        <time>2024-05-26T09:43:45Z</time>
      </trkpt>
      <trkpt lat="45.96332" lon="6.53822">
        <ele>1912</ele>
        <time>2024-05-26T09:44:01Z</time>
      </trkpt>
      <trkpt lat="45.9634" lon="6.53815">
        <ele>1915</ele>
        <time>2024-05-26T09:48:03Z</time>
      </trkpt>
      <trkpt lat="45.96349" lon="6.53811">
        <ele>1916</ele>
        <time>2024-05-26T09:48:18Z</time>
      </trkpt>
      <trkpt lat="45.96356" lon="6.53802">
        <ele>1921</ele>
        <time>2024-05-26T09:48:32Z</time>
      </trkpt>
      <trkpt lat="45.96363" lon="6.53794">
        <ele>1923</ele>
        <time>2024-05-26T09:48:50Z</time>
      </trkpt>
      <trkpt lat="45.96372" lon="6.53799">
        <ele>1926</ele>
        <time>2024-05-26T09:49:33Z</time>
      </trkpt>
      <trkpt lat="45.96376" lon="6.53787">
        <ele>1926</ele>
        <time>2024-05-26T09:50:51Z</time>
      </trkpt>
      <trkpt lat="45.96381" lon="6.53776">
        <ele>1926</ele>
        <time>2024-05-26T09:51:00Z</time>
      </trkpt>
      <trkpt lat="45.96385" lon="6.53764">
        <ele>1931</ele>
        <time>2024-05-26T09:51:12Z</time>
      </trkpt>
      <trkpt lat="45.96389" lon="6.53751">
        <ele>1934</ele>
        <time>2024-05-26T09:51:26Z</time>
      </trkpt>
      <trkpt lat="45.96395" lon="6.53742">
        <ele>1940</ele>
        <time>2024-05-26T09:51:49Z</time>
      </trkpt>
      <trkpt lat="45.96401" lon="6.53732">
        <ele>1941</ele>
        <time>2024-05-26T09:52:21Z</time>
      </trkpt>
      <trkpt lat="45.96402" lon="6.53718">
        <ele>1948</ele>
        <time>2024-05-26T09:53:05Z</time>
      </trkpt>
      <trkpt lat="45.96407" lon="6.53707">
        <ele>1949</ele>
        <time>2024-05-26T09:53:18Z</time>
      </trkpt>
      <trkpt lat="45.96412" lon="6.53696">
        <ele>1950</ele>
        <time>2024-05-26T09:53:29Z</time>
      </trkpt>
      <trkpt lat="45.96418" lon="6.53685">
        <ele>1949</ele>
        <time>2024-05-26T09:54:35Z</time>
      </trkpt>
      <trkpt lat="45.9643" lon="6.53666">
        <ele>1948</ele>
        <time>2024-05-26T09:55:10Z</time>
      </trkpt>
      <trkpt lat="45.96434" lon="6.53654">
        <ele>1945</ele>
        <time>2024-05-26T09:55:58Z</time>
      </trkpt>
      <trkpt lat="45.96442" lon="6.53647">
        <ele>1945</ele>
        <time>2024-05-26T09:56:18Z</time>
      </trkpt>
      <trkpt lat="45.96451" lon="6.53641">
        <ele>1948</ele>
        <time>2024-05-26T09:57:14Z</time>
      </trkpt>
      <trkpt lat="45.96472" lon="6.53611">
        <ele>1953</ele>
        <time>2024-05-26T09:57:47Z</time>
      </trkpt>
      <trkpt lat="45.96472" lon="6.53598">
        <ele>1953</ele>
        <time>2024-05-26T09:58:38Z</time>
      </trkpt>
      <trkpt lat="45.96465" lon="6.53575">
        <ele>1954</ele>
        <time>2024-05-26T09:59:08Z</time>
      </trkpt>
      <trkpt lat="45.96459" lon="6.53562">
        <ele>1952</ele>
        <time>2024-05-26T09:59:24Z</time>
      </trkpt>
      <trkpt lat="45.96455" lon="6.5355">
        <ele>1953</ele>
        <time>2024-05-26T09:59:54Z</time>
      </trkpt>
      <trkpt lat="45.96449" lon="6.53539">
        <ele>1952</ele>
        <time>2024-05-26T10:00:13Z</time>
      </trkpt>
      <trkpt lat="45.96448" lon="6.53526">
        <ele>1948</ele>
        <time>2024-05-26T10:00:44Z</time>
      </trkpt>
      <trkpt lat="45.9644" lon="6.53519">
        <ele>1948</ele>
        <time>2024-05-26T10:01:25Z</time>
      </trkpt>
      <trkpt lat="45.96433" lon="6.5351">
        <ele>1949</ele>
        <time>2024-05-26T10:01:42Z</time>
      </trkpt>
      <trkpt lat="45.96425" lon="6.53503">
        <ele>1949</ele>
        <time>2024-05-26T10:02:04Z</time>
      </trkpt>
      <trkpt lat="45.96419" lon="6.53491">
        <ele>1949</ele>
        <time>2024-05-26T10:02:11Z</time>
      </trkpt>
      <trkpt lat="45.96426" lon="6.53479">
        <ele>1946</ele>
        <time>2024-05-26T10:02:21Z</time>
      </trkpt>
      <trkpt lat="45.96421" lon="6.53473">
        <ele>1942</ele>
        <time>2024-05-26T10:02:23Z</time>
      </trkpt>
      <trkpt lat="45.96414" lon="6.53457">
        <ele>1940</ele>
        <time>2024-05-26T10:02:33Z</time>
      </trkpt>
      <trkpt lat="45.96404" lon="6.53433">
        <ele>1935</ele>
        <time>2024-05-26T10:02:39Z</time>
      </trkpt>
      <trkpt lat="45.96405" lon="6.53419">
        <ele>1927</ele>
        <time>2024-05-26T10:02:45Z</time>
      </trkpt>
      <trkpt lat="45.96401" lon="6.53405">
        <ele>1925</ele>
        <time>2024-05-26T10:02:48Z</time>
      </trkpt>
      <trkpt lat="45.964" lon="6.53388">
        <ele>1921</ele>
        <time>2024-05-26T10:02:51Z</time>
      </trkpt>
      <trkpt lat="45.96404" lon="6.53373">
        <ele>1918</ele>
        <time>2024-05-26T10:02:54Z</time>
      </trkpt>
      <trkpt lat="45.96407" lon="6.53359">
        <ele>1913</ele>
        <time>2024-05-26T10:03:00Z</time>
      </trkpt>
      <trkpt lat="45.96413" lon="6.53349">
        <ele>1905</ele>
        <time>2024-05-26T10:03:10Z</time>
      </trkpt>
      <trkpt lat="45.96416" lon="6.53337">
        <ele>1900</ele>
        <time>2024-05-26T10:03:14Z</time>
      </trkpt>
      <trkpt lat="45.96412" lon="6.53308">
        <ele>1896</ele>
        <time>2024-05-26T10:03:22Z</time>
      </trkpt>
      <trkpt lat="45.96409" lon="6.53296">
        <ele>1895</ele>
        <time>2024-05-26T10:03:29Z</time>
      </trkpt>
      <trkpt lat="45.96405" lon="6.53249">
        <ele>1893</ele>
        <time>2024-05-26T10:04:02Z</time>
      </trkpt>
      <trkpt lat="45.964" lon="6.53177">
        <ele>1886</ele>
        <time>2024-05-26T10:04:43Z</time>
      </trkpt>
      <trkpt lat="45.96394" lon="6.53167">
        <ele>1884</ele>
        <time>2024-05-26T10:05:42Z</time>
      </trkpt>
      <trkpt lat="45.9639" lon="6.53156">
        <ele>1885</ele>
        <time>2024-05-26T10:05:52Z</time>
      </trkpt>
      <trkpt lat="45.96389" lon="6.53143">
        <ele>1886</ele>
        <time>2024-05-26T10:06:08Z</time>
      </trkpt>
      <trkpt lat="45.96386" lon="6.5313">
        <ele>1886</ele>
        <time>2024-05-26T10:06:20Z</time>
      </trkpt>
      <trkpt lat="45.9638" lon="6.53121">
        <ele>1887</ele>
        <time>2024-05-26T10:06:43Z</time>
      </trkpt>
      <trkpt lat="45.96373" lon="6.53112">
        <ele>1888</ele>
        <time>2024-05-26T10:07:08Z</time>
      </trkpt>
      <trkpt lat="45.96369" lon="6.531">
        <ele>1890</ele>
        <time>2024-05-26T10:07:53Z</time>
      </trkpt>
      <trkpt lat="45.96371" lon="6.53086">
        <ele>1890</ele>
        <time>2024-05-26T10:08:07Z</time>
      </trkpt>
      <trkpt lat="45.96374" lon="6.53074">
        <ele>1890</ele>
        <time>2024-05-26T10:08:21Z</time>
      </trkpt>
      <trkpt lat="45.96378" lon="6.53061">
        <ele>1886</ele>
        <time>2024-05-26T10:08:44Z</time>
      </trkpt>
      <trkpt lat="45.96376" lon="6.53021">
        <ele>1886</ele>
        <time>2024-05-26T10:09:25Z</time>
      </trkpt>
      <trkpt lat="45.96374" lon="6.53008">
        <ele>1885</ele>
        <time>2024-05-26T10:10:02Z</time>
      </trkpt>
      <trkpt lat="45.96374" lon="6.52995">
        <ele>1885</ele>
        <time>2024-05-26T10:10:23Z</time>
      </trkpt>
      <trkpt lat="45.96375" lon="6.52982">
        <ele>1883</ele>
        <time>2024-05-26T10:10:54Z</time>
      </trkpt>
      <trkpt lat="45.96377" lon="6.5297">
        <ele>1881</ele>
        <time>2024-05-26T10:11:17Z</time>
      </trkpt>
      <trkpt lat="45.96377" lon="6.52956">
        <ele>1881</ele>
        <time>2024-05-26T10:11:45Z</time>
      </trkpt>
      <trkpt lat="45.96382" lon="6.52943">
        <ele>1882</ele>
        <time>2024-05-26T10:11:58Z</time>
      </trkpt>
      <trkpt lat="45.96386" lon="6.52931">
        <ele>1885</ele>
        <time>2024-05-26T10:12:09Z</time>
      </trkpt>
      <trkpt lat="45.96395" lon="6.52928">
        <ele>1884</ele>
        <time>2024-05-26T10:12:23Z</time>
      </trkpt>
      <trkpt lat="45.96402" lon="6.52919">
        <ele>1880</ele>
        <time>2024-05-26T10:12:35Z</time>
      </trkpt>
      <trkpt lat="45.96405" lon="6.52906">
        <ele>1878</ele>
        <time>2024-05-26T10:14:30Z</time>
      </trkpt>
      <trkpt lat="45.96408" lon="6.52893">
        <ele>1875</ele>
        <time>2024-05-26T10:14:43Z</time>
      </trkpt>
      <trkpt lat="45.96414" lon="6.52883">
        <ele>1873</ele>
        <time>2024-05-26T10:14:57Z</time>
      </trkpt>
      <trkpt lat="45.96421" lon="6.52874">
        <ele>1871</ele>
        <time>2024-05-26T10:15:10Z</time>
      </trkpt>
      <trkpt lat="45.96437" lon="6.5284">
        <ele>1870</ele>
        <time>2024-05-26T10:15:41Z</time>
      </trkpt>
      <trkpt lat="45.96445" lon="6.52833">
        <ele>1869</ele>
        <time>2024-05-26T10:15:52Z</time>
      </trkpt>
      <trkpt lat="45.96454" lon="6.52828">
        <ele>1866</ele>
        <time>2024-05-26T10:16:03Z</time>
      </trkpt>
      <trkpt lat="45.96462" lon="6.52823">
        <ele>1864</ele>
        <time>2024-05-26T10:16:14Z</time>
      </trkpt>
      <trkpt lat="45.96468" lon="6.52812">
        <ele>1862</ele>
        <time>2024-05-26T10:16:25Z</time>
      </trkpt>
      <trkpt lat="45.96472" lon="6.52785">
        <ele>1864</ele>
        <time>2024-05-26T10:16:44Z</time>
      </trkpt>
      <trkpt lat="45.96475" lon="6.52772">
        <ele>1864</ele>
        <time>2024-05-26T10:17:28Z</time>
      </trkpt>
      <trkpt lat="45.96476" lon="6.52758">
        <ele>1868</ele>
        <time>2024-05-26T10:17:42Z</time>
      </trkpt>
      <trkpt lat="45.96473" lon="6.52745">
        <ele>1867</ele>
        <time>2024-05-26T10:19:21Z</time>
      </trkpt>
      <trkpt lat="45.9647" lon="6.52732">
        <ele>1868</ele>
        <time>2024-05-26T10:20:22Z</time>
      </trkpt>
      <trkpt lat="45.96453" lon="6.52685">
        <ele>1869</ele>
        <time>2024-05-26T10:20:57Z</time>
      </trkpt>
      <trkpt lat="45.96443" lon="6.52663">
        <ele>1867</ele>
        <time>2024-05-26T10:21:18Z</time>
      </trkpt>
      <trkpt lat="45.96437" lon="6.52653">
        <ele>1865</ele>
        <time>2024-05-26T10:21:31Z</time>
      </trkpt>
      <trkpt lat="45.96431" lon="6.52642">
        <ele>1861</ele>
        <time>2024-05-26T10:21:45Z</time>
      </trkpt>
      <trkpt lat="45.96427" lon="6.52631">
        <ele>1859</ele>
        <time>2024-05-26T10:21:59Z</time>
      </trkpt>
      <trkpt lat="45.96428" lon="6.52617">
        <ele>1856</ele>
        <time>2024-05-26T10:22:27Z</time>
      </trkpt>
      <trkpt lat="45.96437" lon="6.52613">
        <ele>1855</ele>
        <time>2024-05-26T10:22:31Z</time>
      </trkpt>
      <trkpt lat="45.96462" lon="6.52614">
        <ele>1851</ele>
        <time>2024-05-26T10:22:38Z</time>
      </trkpt>
      <trkpt lat="45.96472" lon="6.52613">
        <ele>1846</ele>
        <time>2024-05-26T10:23:18Z</time>
      </trkpt>
      <trkpt lat="45.96481" lon="6.52616">
        <ele>1845</ele>
        <time>2024-05-26T10:23:27Z</time>
      </trkpt>
      <trkpt lat="45.96509" lon="6.52617">
        <ele>1836</ele>
        <time>2024-05-26T10:24:07Z</time>
      </trkpt>
      <trkpt lat="45.96518" lon="6.52619">
        <ele>1835</ele>
        <time>2024-05-26T10:24:19Z</time>
      </trkpt>
      <trkpt lat="45.96546" lon="6.52625">
        <ele>1825</ele>
        <time>2024-05-26T10:24:58Z</time>
      </trkpt>
      <trkpt lat="45.96556" lon="6.52625">
        <ele>1824</ele>
        <time>2024-05-26T10:25:10Z</time>
      </trkpt>
      <trkpt lat="45.96583" lon="6.52629">
        <ele>1818</ele>
        <time>2024-05-26T10:25:46Z</time>
      </trkpt>
      <trkpt lat="45.96612" lon="6.52633">
        <ele>1817</ele>
        <time>2024-05-26T10:26:17Z</time>
      </trkpt>
      <trkpt lat="45.9662" lon="6.52637">
        <ele>1814</ele>
        <time>2024-05-26T10:26:26Z</time>
      </trkpt>
      <trkpt lat="45.96628" lon="6.52643">
        <ele>1813</ele>
        <time>2024-05-26T10:26:35Z</time>
      </trkpt>
      <trkpt lat="45.96637" lon="6.52647">
        <ele>1810</ele>
        <time>2024-05-26T10:26:46Z</time>
      </trkpt>
      <trkpt lat="45.96646" lon="6.52651">
        <ele>1806</ele>
        <time>2024-05-26T10:27:43Z</time>
      </trkpt>
      <trkpt lat="45.96655" lon="6.52656">
        <ele>1803</ele>
        <time>2024-05-26T10:27:54Z</time>
      </trkpt>
      <trkpt lat="45.96664" lon="6.52656">
        <ele>1802</ele>
        <time>2024-05-26T10:28:06Z</time>
      </trkpt>
      <trkpt lat="45.96673" lon="6.52658">
        <ele>1800</ele>
        <time>2024-05-26T10:28:19Z</time>
      </trkpt>
      <trkpt lat="45.96702" lon="6.52661">
        <ele>1797</ele>
        <time>2024-05-26T10:28:51Z</time>
      </trkpt>
      <trkpt lat="45.96721" lon="6.52659">
        <ele>1793</ele>
        <time>2024-05-26T10:29:13Z</time>
      </trkpt>
      <trkpt lat="45.96725" lon="6.52647">
        <ele>1789</ele>
        <time>2024-05-26T10:29:24Z</time>
      </trkpt>
      <trkpt lat="45.96722" lon="6.52635">
        <ele>1789</ele>
        <time>2024-05-26T10:29:33Z</time>
      </trkpt>
      <trkpt lat="45.96711" lon="6.52613">
        <ele>1787</ele>
        <time>2024-05-26T10:29:51Z</time>
      </trkpt>
      <trkpt lat="45.96705" lon="6.52603">
        <ele>1784</ele>
        <time>2024-05-26T10:30:00Z</time>
      </trkpt>
      <trkpt lat="45.967" lon="6.52592">
        <ele>1784</ele>
        <time>2024-05-26T10:30:09Z</time>
      </trkpt>
      <trkpt lat="45.96709" lon="6.52588">
        <ele>1778</ele>
        <time>2024-05-26T10:30:28Z</time>
      </trkpt>
      <trkpt lat="45.96718" lon="6.52591">
        <ele>1776</ele>
        <time>2024-05-26T10:30:38Z</time>
      </trkpt>
      <trkpt lat="45.96728" lon="6.52595">
        <ele>1775</ele>
        <time>2024-05-26T10:30:54Z</time>
      </trkpt>
      <trkpt lat="45.96737" lon="6.526">
        <ele>1772</ele>
        <time>2024-05-26T10:31:03Z</time>
      </trkpt>
      <trkpt lat="45.96756" lon="6.52604">
        <ele>1772</ele>
        <time>2024-05-26T10:31:23Z</time>
      </trkpt>
      <trkpt lat="45.96784" lon="6.52613">
        <ele>1768</ele>
        <time>2024-05-26T10:31:55Z</time>
      </trkpt>
      <trkpt lat="45.96801" lon="6.52627">
        <ele>1763</ele>
        <time>2024-05-26T10:32:15Z</time>
      </trkpt>
      <trkpt lat="45.9681" lon="6.52631">
        <ele>1760</ele>
        <time>2024-05-26T10:32:25Z</time>
      </trkpt>
      <trkpt lat="45.96819" lon="6.52629">
        <ele>1759</ele>
        <time>2024-05-26T10:32:36Z</time>
      </trkpt>
      <trkpt lat="45.9684" lon="6.52604">
        <ele>1755</ele>
        <time>2024-05-26T10:33:07Z</time>
      </trkpt>
      <trkpt lat="45.96847" lon="6.52595">
        <ele>1753</ele>
        <time>2024-05-26T10:33:18Z</time>
      </trkpt>
      <trkpt lat="45.9686" lon="6.52575">
        <ele>1747</ele>
        <time>2024-05-26T10:33:40Z</time>
      </trkpt>
      <trkpt lat="45.9687" lon="6.52553">
        <ele>1742</ele>
        <time>2024-05-26T10:34:05Z</time>
      </trkpt>
      <trkpt lat="45.96887" lon="6.52541">
        <ele>1740</ele>
        <time>2024-05-26T10:34:23Z</time>
      </trkpt>
      <trkpt lat="45.96913" lon="6.52531">
        <ele>1737</ele>
        <time>2024-05-26T10:34:54Z</time>
      </trkpt>
      <trkpt lat="45.96937" lon="6.52507">
        <ele>1735</ele>
        <time>2024-05-26T10:35:23Z</time>
      </trkpt>
      <trkpt lat="45.96952" lon="6.52491">
        <ele>1732</ele>
        <time>2024-05-26T10:35:41Z</time>
      </trkpt>
      <trkpt lat="45.96979" lon="6.52454">
        <ele>1727</ele>
        <time>2024-05-26T10:36:17Z</time>
      </trkpt>
      <trkpt lat="45.9701" lon="6.52424">
        <ele>1726</ele>
        <time>2024-05-26T10:36:55Z</time>
      </trkpt>
      <trkpt lat="45.97027" lon="6.52409">
        <ele>1726</ele>
        <time>2024-05-26T10:37:15Z</time>
      </trkpt>
      <trkpt lat="45.97033" lon="6.52399">
        <ele>1725</ele>
        <time>2024-05-26T10:37:25Z</time>
      </trkpt>
      <trkpt lat="45.97039" lon="6.52388">
        <ele>1725</ele>
        <time>2024-05-26T10:37:33Z</time>
      </trkpt>
      <trkpt lat="45.97045" lon="6.52378">
        <ele>1724</ele>
        <time>2024-05-26T10:37:41Z</time>
      </trkpt>
      <trkpt lat="45.97049" lon="6.5235">
        <ele>1727</ele>
        <time>2024-05-26T10:38:00Z</time>
      </trkpt>
      <trkpt lat="45.97043" lon="6.52339">
        <ele>1726</ele>
        <time>2024-05-26T10:38:09Z</time>
      </trkpt>
    </trkseg>
  </trk>
</gpx>